<?xml version="1.0" encoding="UTF-8" standalone="no" ?><gpx xmlns="http://www.topografix.com/GPX/1/1" xmlns:gpxx="http://www.garmin.com/xmlschemas/GpxExtensions/v3" xmlns:wptx1="http://www.garmin.com/xmlschemas/WaypointExtension/v1" xmlns:gpxtpx="http://www.garmin.com/xmlschemas/TrackPointExtension/v1" creator="GuideVTT.com" version="1.1" xmlns:xsi="http://www.w3.org/2001/XMLSchema-instance" xsi:schemaLocation="http://www.topografix.com/GPX/1/1 http://www.topografix.com/GPX/1/1/gpx.xsd http://www.garmin.com/xmlschemas/GpxExtensions/v3 http://www8.garmin.com/xmlschemas/GpxExtensionsv3.xsd http://www.garmin.com/xmlschemas/WaypointExtension/v1 http://www8.garmin.com/xmlschemas/WaypointExtensionv1.xsd http://www.garmin.com/xmlschemas/TrackPointExtension/v1 http://www.garmin.com/xmlschemas/TrackPointExtensionv1.xsd">
<metadata><link href="http://www.garmin.com"><text>Garmin International</text></link><time>2013-06-22T15:13:50Z</time></metadata>
<trk><name>asconacimetta.gpx</name><extensions><gpxx:TrackExtension><gpxx:DisplayColor>Cyan</gpxx:DisplayColor></gpxx:TrackExtension></extensions><trkseg>
<trkpt lat="46.15220951847732" lon="8.789283782243729"><ele>253.44470214844</ele><time>2007-04-10T07:17:05Z</time></trkpt>
<trkpt lat="46.15220951847732" lon="8.789283782243729"><ele>253.44470214844</ele><time>2007-04-10T07:50:53Z</time></trkpt>
<trkpt lat="46.15950454026461" lon="8.787208087742329"><ele>156.3515625</ele><time>2007-04-10T07:52:25Z</time></trkpt>
<trkpt lat="46.15965625271201" lon="8.786944644525647"><ele>160.19689941406</ele><time>2007-04-10T07:52:30Z</time></trkpt>
<trkpt lat="46.15971442312002" lon="8.786833500489593"><ele>163.5615234375</ele><time>2007-04-10T07:52:32Z</time></trkpt>
<trkpt lat="46.159805031493306" lon="8.786662258207798"><ele>167.88732910156</ele><time>2007-04-10T07:52:35Z</time></trkpt>
<trkpt lat="46.15990377031267" lon="8.786507779732347"><ele>171.25207519531</ele><time>2007-04-10T07:52:38Z</time></trkpt>
<trkpt lat="46.15999437868595" lon="8.786357073113322"><ele>174.61657714844</ele><time>2007-04-10T07:52:41Z</time></trkpt>
<trkpt lat="46.16008230485022" lon="8.78620008006692"><ele>177.98120117188</ele><time>2007-04-10T07:52:44Z</time></trkpt>
<trkpt lat="46.160203758627176" lon="8.785990197211504"><ele>180.865234375</ele><time>2007-04-10T07:52:48Z</time></trkpt>
<trkpt lat="46.160320015624166" lon="8.785777548328042"><ele>184.71057128906</ele><time>2007-04-10T07:52:52Z</time></trkpt>
<trkpt lat="46.1603475920856" lon="8.78572465851903"><ele>184.71057128906</ele><time>2007-04-10T07:52:53Z</time></trkpt>
<trkpt lat="46.16213947534561" lon="8.782509192824364"><ele>206.82067871094</ele><time>2007-04-10T07:53:59Z</time></trkpt>
<trkpt lat="46.162129919975996" lon="8.782165199518204"><ele>208.26281738281</ele><time>2007-04-10T07:54:05Z</time></trkpt>
<trkpt lat="46.16217685863376" lon="8.782126307487488"><ele>209.70483398438</ele><time>2007-04-10T07:54:08Z</time></trkpt>
<trkpt lat="46.16261154413223" lon="8.783236742019653"><ele>211.62744140625</ele><time>2007-04-10T07:54:57Z</time></trkpt>
<trkpt lat="46.16301362402737" lon="8.784295376390219"><ele>208.74340820312</ele><time>2007-04-10T07:55:17Z</time></trkpt>
<trkpt lat="46.163005493581295" lon="8.784331334754825"><ele>207.30139160156</ele><time>2007-04-10T07:55:21Z</time></trkpt>
<trkpt lat="46.16280751302838" lon="8.784680189564824"><ele>206.82067871094</ele><time>2007-04-10T07:55:42Z</time></trkpt>
<trkpt lat="46.161791710183024" lon="8.78647031262517"><ele>206.82067871094</ele><time>2007-04-10T07:56:18Z</time></trkpt>
<trkpt lat="46.1548200622201" lon="8.798789782449603"><ele>200.09167480469</ele><time>2007-04-10T07:59:48Z</time></trkpt>
<trkpt lat="46.15490773692727" lon="8.79938380792737"><ele>198.1689453125</ele><time>2007-04-10T07:59:59Z</time></trkpt>
<trkpt lat="46.157064735889435" lon="8.801379622891545"><ele>197.20751953125</ele><time>2007-04-10T08:01:00Z</time></trkpt>
<trkpt lat="46.1592510715127" lon="8.802588125690818"><ele>196.72692871094</ele><time>2007-04-10T08:01:54Z</time></trkpt>
<trkpt lat="46.160589158535004" lon="8.802917031571269"><ele>197.20751953125</ele><time>2007-04-10T08:02:22Z</time></trkpt>
<trkpt lat="46.164821265265346" lon="8.803161112591624"><ele>197.68823242188</ele><time>2007-04-10T08:03:46Z</time></trkpt>
<trkpt lat="46.16555292159319" lon="8.803699230775237"><ele>197.20751953125</ele><time>2007-04-10T08:04:04Z</time></trkpt>
<trkpt lat="46.16578065790236" lon="8.803687999024987"><ele>197.20751953125</ele><time>2007-04-10T08:04:09Z</time></trkpt>
<trkpt lat="46.167189655825496" lon="8.802654761821032"><ele>196.72692871094</ele><time>2007-04-10T08:04:41Z</time></trkpt>
<trkpt lat="46.16946064867079" lon="8.80092104896903"><ele>197.20751953125</ele><time>2007-04-10T08:05:35Z</time></trkpt>
<trkpt lat="46.17086763493717" lon="8.800511928275228"><ele>197.68823242188</ele><time>2007-04-10T08:06:06Z</time></trkpt>
<trkpt lat="46.17115396074951" lon="8.801529742777348"><ele>199.13012695312</ele><time>2007-04-10T08:06:19Z</time></trkpt>
<trkpt lat="46.171777406707406" lon="8.801500322297215"><ele>202.01428222656</ele><time>2007-04-10T08:06:35Z</time></trkpt>
<trkpt lat="46.17239875718951" lon="8.801344083622098"><ele>205.37878417969</ele><time>2007-04-10T08:07:04Z</time></trkpt>
<trkpt lat="46.17197019048035" lon="8.800627095624804"><ele>205.37878417969</ele><time>2007-04-10T08:07:14Z</time></trkpt>
<trkpt lat="46.17206976749003" lon="8.800558028742671"><ele>205.37878417969</ele><time>2007-04-10T08:07:18Z</time></trkpt>
<trkpt lat="46.17296042852104" lon="8.801671732217073"><ele>208.74340820312</ele><time>2007-04-10T08:08:23Z</time></trkpt>
<trkpt lat="46.17302522063255" lon="8.801658991724253"><ele>209.22412109375</ele><time>2007-04-10T08:08:29Z</time></trkpt>
<trkpt lat="46.173678087070584" lon="8.802191661670804"><ele>216.43395996094</ele><time>2007-04-10T08:09:46Z</time></trkpt>
<trkpt lat="46.173670291900635" lon="8.802068447694182"><ele>216.43395996094</ele><time>2007-04-10T08:09:51Z</time></trkpt>
<trkpt lat="46.17366652004421" lon="8.801719089969993"><ele>216.91467285156</ele><time>2007-04-10T08:10:05Z</time></trkpt>
<trkpt lat="46.17343509569764" lon="8.801188264042139"><ele>215.47265625</ele><time>2007-04-10T08:14:05Z</time></trkpt>
<trkpt lat="46.173402573913336" lon="8.800549814477563"><ele>215.95324707031</ele><time>2007-04-10T08:14:22Z</time></trkpt>
<trkpt lat="46.17331967689097" lon="8.800025945529342"><ele>219.31799316406</ele><time>2007-04-10T08:14:35Z</time></trkpt>
<trkpt lat="46.17320618592203" lon="8.799228826537728"><ele>223.16320800781</ele><time>2007-04-10T08:14:58Z</time></trkpt>
<trkpt lat="46.17171546444297" lon="8.797864839434624"><ele>221.24060058594</ele><time>2007-04-10T08:15:47Z</time></trkpt>
<trkpt lat="46.17154514417052" lon="8.79759636707604"><ele>221.24060058594</ele><time>2007-04-10T08:15:53Z</time></trkpt>
<trkpt lat="46.17124197073281" lon="8.796863621100783"><ele>218.83728027344</ele><time>2007-04-10T08:16:07Z</time></trkpt>
<trkpt lat="46.17208695039153" lon="8.796758595854044"><ele>232.29577636719</ele><time>2007-04-10T08:17:12Z</time></trkpt>
<trkpt lat="46.17215232923627" lon="8.796766474843025"><ele>233.25708007812</ele><time>2007-04-10T08:17:17Z</time></trkpt>
<trkpt lat="46.17220018990338" lon="8.796717524528503"><ele>233.73767089844</ele><time>2007-04-10T08:17:21Z</time></trkpt>
<trkpt lat="46.172518115490675" lon="8.796508312225342"><ele>239.98620605469</ele><time>2007-04-10T08:17:47Z</time></trkpt>
<trkpt lat="46.17292933166027" lon="8.796296082437038"><ele>246.71545410156</ele><time>2007-04-10T08:18:24Z</time></trkpt>
<trkpt lat="46.17291600443423" lon="8.796264985576272"><ele>246.71545410156</ele><time>2007-04-10T08:18:53Z</time></trkpt>
<trkpt lat="46.172849452123046" lon="8.795855529606342"><ele>247.6767578125</ele><time>2007-04-10T08:19:11Z</time></trkpt>
<trkpt lat="46.17251006886363" lon="8.795147594064474"><ele>246.23486328125</ele><time>2007-04-10T08:19:34Z</time></trkpt>
<trkpt lat="46.17253102362156" lon="8.795000743120909"><ele>246.23486328125</ele><time>2007-04-10T08:19:39Z</time></trkpt>
<trkpt lat="46.172602688893676" lon="8.794596903026104"><ele>249.59948730469</ele><time>2007-04-10T08:19:50Z</time></trkpt>
<trkpt lat="46.17310560308397" lon="8.794008744880557"><ele>255.36730957031</ele><time>2007-04-10T08:20:23Z</time></trkpt>
<trkpt lat="46.17319017648697" lon="8.793880501762033"><ele>256.80932617188</ele><time>2007-04-10T08:20:29Z</time></trkpt>
<trkpt lat="46.173172909766436" lon="8.793751755729318"><ele>257.2900390625</ele><time>2007-04-10T08:20:34Z</time></trkpt>
<trkpt lat="46.17296193726361" lon="8.793554697185755"><ele>258.73193359375</ele><time>2007-04-10T08:20:47Z</time></trkpt>
<trkpt lat="46.17229700088501" lon="8.793578501790762"><ele>265.46130371094</ele><time>2007-04-10T08:21:24Z</time></trkpt>
<trkpt lat="46.17212391458452" lon="8.793453192338347"><ele>266.90319824219</ele><time>2007-04-10T08:21:35Z</time></trkpt>
<trkpt lat="46.17194999009371" lon="8.793038874864578"><ele>271.22912597656</ele><time>2007-04-10T08:21:54Z</time></trkpt>
<trkpt lat="46.17190070450306" lon="8.792914655059576"><ele>269.787109375</ele><time>2007-04-10T08:22:23Z</time></trkpt>
<trkpt lat="46.171899531036615" lon="8.792705610394478"><ele>272.67114257812</ele><time>2007-04-10T08:22:42Z</time></trkpt>
<trkpt lat="46.17152092047036" lon="8.791533317416906"><ele>282.28430175781</ele><time>2007-04-10T08:23:29Z</time></trkpt>
<trkpt lat="46.17136895656586" lon="8.790761679410934"><ele>288.05224609375</ele><time>2007-04-10T08:24:00Z</time></trkpt>
<trkpt lat="46.17116100154817" lon="8.789631631225348"><ele>294.78137207031</ele><time>2007-04-10T08:24:40Z</time></trkpt>
<trkpt lat="46.17115748114884" lon="8.789601204916835"><ele>294.78137207031</ele><time>2007-04-10T08:24:41Z</time></trkpt>
<trkpt lat="46.171139627695084" lon="8.788062874227762"><ele>305.35595703125</ele><time>2007-04-10T08:26:58Z</time></trkpt>
<trkpt lat="46.17117600515485" lon="8.788088019937277"><ele>305.35595703125</ele><time>2007-04-10T08:27:03Z</time></trkpt>
<trkpt lat="46.171310199424624" lon="8.788908524438739"><ele>309.201171875</ele><time>2007-04-10T08:27:30Z</time></trkpt>
<trkpt lat="46.17135252803564" lon="8.789376486092806"><ele>312.56579589844</ele><time>2007-04-10T08:27:48Z</time></trkpt>
<trkpt lat="46.172573352232575" lon="8.79214083775878"><ele>328.90832519531</ele><time>2007-04-10T08:29:35Z</time></trkpt>
<trkpt lat="46.172660356387496" lon="8.792239828035235"><ele>329.38891601562</ele><time>2007-04-10T08:29:41Z</time></trkpt>
<trkpt lat="46.1726413294673" lon="8.792094318196177"><ele>330.35021972656</ele><time>2007-04-10T08:29:45Z</time></trkpt>
<trkpt lat="46.17230052128434" lon="8.791148839518428"><ele>336.59887695312</ele><time>2007-04-10T08:30:17Z</time></trkpt>
<trkpt lat="46.17215375415981" lon="8.790185591205955"><ele>342.84729003906</ele><time>2007-04-10T08:30:48Z</time></trkpt>
<trkpt lat="46.172030456364155" lon="8.789053950458765"><ele>350.05725097656</ele><time>2007-04-10T08:33:11Z</time></trkpt>
<trkpt lat="46.17205602116883" lon="8.788176951929927"><ele>356.78637695312</ele><time>2007-04-10T08:33:39Z</time></trkpt>
<trkpt lat="46.1720469687134" lon="8.786400156095624"><ele>363.51574707031</ele><time>2007-04-10T08:34:35Z</time></trkpt>
<trkpt lat="46.17206641472876" lon="8.785846950486302"><ele>366.88024902344</ele><time>2007-04-10T08:34:50Z</time></trkpt>
<trkpt lat="46.172099858522415" lon="8.785556936636567"><ele>369.76428222656</ele><time>2007-04-10T08:34:59Z</time></trkpt>
<trkpt lat="46.17215878330171" lon="8.785635642707348"><ele>370.24487304688</ele><time>2007-04-10T08:35:04Z</time></trkpt>
<trkpt lat="46.17253437638283" lon="8.787115132436156"><ele>379.85803222656</ele><time>2007-04-10T08:36:06Z</time></trkpt>
<trkpt lat="46.173009630292654" lon="8.788362443447113"><ele>389.47119140625</ele><time>2007-04-10T08:36:59Z</time></trkpt>
<trkpt lat="46.173070818185806" lon="8.78848934546113"><ele>390.4326171875</ele><time>2007-04-10T08:37:05Z</time></trkpt>
<trkpt lat="46.173123037442565" lon="8.788619684055448"><ele>391.39379882812</ele><time>2007-04-10T08:37:32Z</time></trkpt>
<trkpt lat="46.173573983833194" lon="8.78949492238462"><ele>398.60375976562</ele><time>2007-04-10T08:39:41Z</time></trkpt>
<trkpt lat="46.17374723777175" lon="8.78968602977693"><ele>399.56506347656</ele><time>2007-04-10T08:39:52Z</time></trkpt>
<trkpt lat="46.1737999599427" lon="8.789648562669754"><ele>400.0458984375</ele><time>2007-04-10T08:39:54Z</time></trkpt>
<trkpt lat="46.17385075427592" lon="8.789621321484447"><ele>400.0458984375</ele><time>2007-04-10T08:39:56Z</time></trkpt>
<trkpt lat="46.17387757636607" lon="8.78966306336224"><ele>401.00708007812</ele><time>2007-04-10T08:39:58Z</time></trkpt>
<trkpt lat="46.17392183281481" lon="8.78972651436925"><ele>399.56506347656</ele><time>2007-04-10T08:40:01Z</time></trkpt>
<trkpt lat="46.173980087041855" lon="8.78973632119596"><ele>400.0458984375</ele><time>2007-04-10T08:40:05Z</time></trkpt>
<trkpt lat="46.174122244119644" lon="8.789655352011323"><ele>403.41040039062</ele><time>2007-04-10T08:40:17Z</time></trkpt>
<trkpt lat="46.1746044550091" lon="8.789774710312486"><ele>410.1396484375</ele><time>2007-04-10T08:40:53Z</time></trkpt>
<trkpt lat="46.17469858378172" lon="8.790015690028667"><ele>411.10095214844</ele><time>2007-04-10T08:41:06Z</time></trkpt>
<trkpt lat="46.17471660487354" lon="8.790059695020318"><ele>410.1396484375</ele><time>2007-04-10T08:41:36Z</time></trkpt>
<trkpt lat="46.17471216246486" lon="8.79006128758192"><ele>411.10095214844</ele><time>2007-04-10T08:41:41Z</time></trkpt>
<trkpt lat="46.17470847442746" lon="8.790063466876745"><ele>410.62023925781</ele><time>2007-04-10T08:41:43Z</time></trkpt>
<trkpt lat="46.17475348524749" lon="8.790136640891433"><ele>412.06225585938</ele><time>2007-04-10T08:41:48Z</time></trkpt>
<trkpt lat="46.174891451373696" lon="8.79039203748107"><ele>413.98486328125</ele><time>2007-04-10T08:42:05Z</time></trkpt>
<trkpt lat="46.174974935129285" lon="8.790417769923806"><ele>414.94616699219</ele><time>2007-04-10T08:42:11Z</time></trkpt>
<trkpt lat="46.17510477080941" lon="8.790307883173227"><ele>416.86889648438</ele><time>2007-04-10T08:42:23Z</time></trkpt>
<trkpt lat="46.17512756958604" lon="8.790157930925488"><ele>417.349609375</ele><time>2007-04-10T08:42:29Z</time></trkpt>
<trkpt lat="46.17493721656501" lon="8.789792228490114"><ele>420.71411132812</ele><time>2007-04-10T08:42:51Z</time></trkpt>
<trkpt lat="46.174783911556005" lon="8.789498526602983"><ele>424.07873535156</ele><time>2007-04-10T08:43:09Z</time></trkpt>
<trkpt lat="46.17474401369691" lon="8.789454940706491"><ele>424.55944824219</ele><time>2007-04-10T08:43:14Z</time></trkpt>
<trkpt lat="46.17477343417704" lon="8.789390064775944"><ele>424.55944824219</ele><time>2007-04-10T08:43:24Z</time></trkpt>
<trkpt lat="46.17464100010693" lon="8.788859825581312"><ele>426.48205566406</ele><time>2007-04-10T08:43:59Z</time></trkpt>
<trkpt lat="46.17475491017103" lon="8.788903830572963"><ele>427.92395019531</ele><time>2007-04-10T08:44:08Z</time></trkpt>
<trkpt lat="46.174883572384715" lon="8.789147073403"><ele>430.80798339844</ele><time>2007-04-10T08:44:23Z</time></trkpt>
<trkpt lat="46.17513209581375" lon="8.789458628743887"><ele>435.61450195312</ele><time>2007-04-10T08:44:47Z</time></trkpt>
<trkpt lat="46.17540651932359" lon="8.789835143834352"><ele>439.45971679688</ele><time>2007-04-10T08:45:34Z</time></trkpt>
<trkpt lat="46.17547558620572" lon="8.78975585103035"><ele>439.9404296875</ele><time>2007-04-10T08:45:42Z</time></trkpt>
<trkpt lat="46.1754282284528" lon="8.789666164666414"><ele>440.90185546875</ele><time>2007-04-10T08:45:49Z</time></trkpt>
<trkpt lat="46.17537424899638" lon="8.7896219920367"><ele>440.42126464844</ele><time>2007-04-10T08:45:54Z</time></trkpt>
<trkpt lat="46.175254387781024" lon="8.789383191615343"><ele>444.26647949219</ele><time>2007-04-10T08:46:10Z</time></trkpt>
<trkpt lat="46.175168892368674" lon="8.789030062034726"><ele>447.63098144531</ele><time>2007-04-10T08:46:35Z</time></trkpt>
<trkpt lat="46.175433341413736" lon="8.7878140155226"><ele>457.24426269531</ele><time>2007-04-10T08:47:41Z</time></trkpt>
<trkpt lat="46.17535647936165" lon="8.787519559264183"><ele>460.60876464844</ele><time>2007-04-10T08:47:54Z</time></trkpt>
<trkpt lat="46.17519839666784" lon="8.786591850221157"><ele>460.12817382812</ele><time>2007-04-10T08:52:38Z</time></trkpt>
<trkpt lat="46.17544147185981" lon="8.785741170868278"><ele>459.16687011719</ele><time>2007-04-10T08:52:59Z</time></trkpt>
<trkpt lat="46.175213903188705" lon="8.784205773845315"><ele>458.68615722656</ele><time>2007-04-10T08:53:30Z</time></trkpt>
<trkpt lat="46.17541356012225" lon="8.782978663221002"><ele>459.64758300781</ele><time>2007-04-10T08:53:54Z</time></trkpt>
<trkpt lat="46.1754266358912" lon="8.782932981848717"><ele>460.60876464844</ele><time>2007-04-10T08:53:55Z</time></trkpt>
<trkpt lat="46.1754247918725" lon="8.782863328233361"><ele>461.08947753906</ele><time>2007-04-10T08:53:57Z</time></trkpt>
<trkpt lat="46.17550576105714" lon="8.782627377659082"><ele>462.05078125</ele><time>2007-04-10T08:54:16Z</time></trkpt>
<trkpt lat="46.17547784931958" lon="8.782471977174282"><ele>463.01208496094</ele><time>2007-04-10T08:54:25Z</time></trkpt>
<trkpt lat="46.17541875690222" lon="8.78191969357431"><ele>466.857421875</ele><time>2007-04-10T08:54:52Z</time></trkpt>
<trkpt lat="46.175473406910896" lon="8.781785247847438"><ele>467.81872558594</ele><time>2007-04-10T08:54:59Z</time></trkpt>
<trkpt lat="46.17570818401873" lon="8.781554326415062"><ele>471.66394042969</ele><time>2007-04-10T08:55:23Z</time></trkpt>
<trkpt lat="46.17565722204745" lon="8.781432872638106"><ele>472.14465332031</ele><time>2007-04-10T08:55:29Z</time></trkpt>
<trkpt lat="46.17557809688151" lon="8.780486388131976"><ele>478.87390136719</ele><time>2007-04-10T08:56:12Z</time></trkpt>
<trkpt lat="46.17557440884411" lon="8.780376585200429"><ele>480.31591796875</ele><time>2007-04-10T08:56:17Z</time></trkpt>
<trkpt lat="46.1755595728755" lon="8.779964530840516"><ele>483.68041992188</ele><time>2007-04-10T08:56:36Z</time></trkpt>
<trkpt lat="46.17555915378034" lon="8.779860846698284"><ele>484.64184570312</ele><time>2007-04-10T08:56:41Z</time></trkpt>
<trkpt lat="46.1752902623266" lon="8.779626153409481"><ele>487.52563476562</ele><time>2007-04-10T08:56:59Z</time></trkpt>
<trkpt lat="46.17526402696967" lon="8.779510399326682"><ele>488.00646972656</ele><time>2007-04-10T08:57:05Z</time></trkpt>
<trkpt lat="46.17530258372426" lon="8.779405876994133"><ele>489.44836425781</ele><time>2007-04-10T08:57:10Z</time></trkpt>
<trkpt lat="46.17541255429387" lon="8.779266150668263"><ele>493.77429199219</ele><time>2007-04-10T08:58:35Z</time></trkpt>
<trkpt lat="46.17581220343709" lon="8.779118629172444"><ele>498.10034179688</ele><time>2007-04-10T08:58:59Z</time></trkpt>
<trkpt lat="46.17603641934693" lon="8.778883684426546"><ele>500.98413085938</ele><time>2007-04-10T08:59:17Z</time></trkpt>
<trkpt lat="46.17631126195192" lon="8.778686039149761"><ele>503.8681640625</ele><time>2007-04-10T08:59:36Z</time></trkpt>
<trkpt lat="46.176511170342565" lon="8.778446149080992"><ele>506.75207519531</ele><time>2007-04-10T08:59:56Z</time></trkpt>
<trkpt lat="46.176493065431714" lon="8.778396612033248"><ele>507.23278808594</ele><time>2007-04-10T08:59:58Z</time></trkpt>
<trkpt lat="46.176124261692166" lon="8.778004758059978"><ele>513.00073242188</ele><time>2007-04-10T09:00:28Z</time></trkpt>
<trkpt lat="46.17619626224041" lon="8.777559259906411"><ele>516.365234375</ele><time>2007-04-10T09:00:54Z</time></trkpt>
<trkpt lat="46.17608587257564" lon="8.776907734572887"><ele>525.49780273438</ele><time>2007-04-10T09:01:53Z</time></trkpt>
<trkpt lat="46.17600708268583" lon="8.776574302464724"><ele>528.86254882812</ele><time>2007-04-10T09:02:11Z</time></trkpt>
<trkpt lat="46.17589660920203" lon="8.77632980234921"><ele>530.78515625</ele><time>2007-04-10T09:02:22Z</time></trkpt>
<trkpt lat="46.17582796141505" lon="8.776167277246714"><ele>531.26574707031</ele><time>2007-04-10T09:02:36Z</time></trkpt>
<trkpt lat="46.17572117596865" lon="8.77600927837193"><ele>531.74633789062</ele><time>2007-04-10T09:09:52Z</time></trkpt>
<trkpt lat="46.175805665552616" lon="8.775941636413336"><ele>532.22705078125</ele><time>2007-04-10T09:09:59Z</time></trkpt>
<trkpt lat="46.17620053701103" lon="8.774881158024073"><ele>541.35949707031</ele><time>2007-04-10T09:10:59Z</time></trkpt>
<trkpt lat="46.17663312703371" lon="8.774627856910229"><ele>547.60815429688</ele><time>2007-04-10T09:11:29Z</time></trkpt>
<trkpt lat="46.17672993801534" lon="8.774266177788377"><ele>550.97265625</ele><time>2007-04-10T09:11:53Z</time></trkpt>
<trkpt lat="46.176622649654746" lon="8.774230806156993"><ele>551.93408203125</ele><time>2007-04-10T09:11:58Z</time></trkpt>
<trkpt lat="46.176531286910176" lon="8.774147992953658"><ele>553.3759765625</ele><time>2007-04-10T09:12:04Z</time></trkpt>
<trkpt lat="46.17696622386575" lon="8.77290747128427"><ele>564.43115234375</ele><time>2007-04-10T09:13:18Z</time></trkpt>
<trkpt lat="46.17745338007808" lon="8.771370816975832"><ele>577.4091796875</ele><time>2007-04-10T09:14:36Z</time></trkpt>
<trkpt lat="46.17750953882933" lon="8.771207788959146"><ele>578.85107421875</ele><time>2007-04-10T09:14:44Z</time></trkpt>
<trkpt lat="46.177681032568216" lon="8.770938646048307"><ele>581.73486328125</ele><time>2007-04-10T09:15:01Z</time></trkpt>
<trkpt lat="46.17810867726803" lon="8.770471271127462"><ele>588.46435546875</ele><time>2007-04-10T09:15:35Z</time></trkpt>
<trkpt lat="46.179131772369146" lon="8.769426550716162"><ele>600.96118164062</ele><time>2007-04-10T09:16:50Z</time></trkpt>
<trkpt lat="46.17941960692406" lon="8.769046179950237"><ele>607.2099609375</ele><time>2007-04-10T09:17:19Z</time></trkpt>
<trkpt lat="46.17936143651605" lon="8.769073421135545"><ele>608.65185546875</ele><time>2007-04-10T09:17:23Z</time></trkpt>
<trkpt lat="46.17873773910105" lon="8.769953604787588"><ele>615.86181640625</ele><time>2007-04-10T09:18:11Z</time></trkpt>
<trkpt lat="46.178724747151136" lon="8.769976068288088"><ele>616.34228515625</ele><time>2007-04-10T09:18:12Z</time></trkpt>
<trkpt lat="46.17809266783297" lon="8.771164705976844"><ele>628.83959960938</ele><time>2007-04-10T09:19:11Z</time></trkpt>
<trkpt lat="46.17804899811745" lon="8.772028796374798"><ele>635.08813476562</ele><time>2007-04-10T09:19:47Z</time></trkpt>
<trkpt lat="46.177925281226635" lon="8.774804379791021"><ele>655.27587890625</ele><time>2007-04-10T09:21:42Z</time></trkpt>
<trkpt lat="46.17803206667304" lon="8.77560661174357"><ele>662.00512695312</ele><time>2007-04-10T09:22:24Z</time></trkpt>
<trkpt lat="46.17823423817754" lon="8.775767628103495"><ele>664.88891601562</ele><time>2007-04-10T09:22:42Z</time></trkpt>
<trkpt lat="46.17861544713378" lon="8.776404988020658"><ele>671.6181640625</ele><time>2007-04-10T09:23:23Z</time></trkpt>
<trkpt lat="46.17885449901223" lon="8.778440784662962"><ele>687.47998046875</ele><time>2007-04-10T09:24:52Z</time></trkpt>
<trkpt lat="46.17920025251806" lon="8.779439572244883"><ele>697.09301757812</ele><time>2007-04-10T09:25:47Z</time></trkpt>
<trkpt lat="46.1795434076339" lon="8.780068969354033"><ele>703.341796875</ele><time>2007-04-10T09:26:30Z</time></trkpt>
<trkpt lat="46.17970668710768" lon="8.780796183273196"><ele>709.10961914062</ele><time>2007-04-10T09:27:00Z</time></trkpt>
<trkpt lat="46.17978606373072" lon="8.781136153265834"><ele>712.47412109375</ele><time>2007-04-10T09:27:15Z</time></trkpt>
<trkpt lat="46.179885137826204" lon="8.781600343063474"><ele>715.35815429688</ele><time>2007-04-10T09:27:36Z</time></trkpt>
<trkpt lat="46.17999334819615" lon="8.781968392431736"><ele>718.72290039062</ele><time>2007-04-10T09:27:53Z</time></trkpt>
<trkpt lat="46.18063154630363" lon="8.782422943040729"><ele>726.89404296875</ele><time>2007-04-10T09:28:47Z</time></trkpt>
<trkpt lat="46.18058603256941" lon="8.782365107908845"><ele>727.85522460938</ele><time>2007-04-10T09:28:51Z</time></trkpt>
<trkpt lat="46.18052694015205" lon="8.78235605545342"><ele>727.85522460938</ele><time>2007-04-10T09:28:55Z</time></trkpt>
<trkpt lat="46.179937440901995" lon="8.782261591404676"><ele>734.58471679688</ele><time>2007-04-10T09:29:35Z</time></trkpt>
<trkpt lat="46.179872900247574" lon="8.781904270872474"><ele>737.94921875</ele><time>2007-04-10T09:29:51Z</time></trkpt>
<trkpt lat="46.17987474426627" lon="8.781868731603026"><ele>737.94921875</ele><time>2007-04-10T09:29:52Z</time></trkpt>
<trkpt lat="46.179882287979126" lon="8.78164510242641"><ele>739.87182617188</ele><time>2007-04-10T09:29:59Z</time></trkpt>
<trkpt lat="46.179944816976786" lon="8.781079156324267"><ele>743.236328125</ele><time>2007-04-10T09:30:19Z</time></trkpt>
<trkpt lat="46.17993769235909" lon="8.781056441366673"><ele>743.236328125</ele><time>2007-04-10T09:30:20Z</time></trkpt>
<trkpt lat="46.17993928492069" lon="8.779925554990768"><ele>749.9658203125</ele><time>2007-04-10T09:31:07Z</time></trkpt>
<trkpt lat="46.17992545478046" lon="8.77954107709229"><ele>753.33032226562</ele><time>2007-04-10T09:31:22Z</time></trkpt>
<trkpt lat="46.17991682142019" lon="8.7794922105968"><ele>753.33032226562</ele><time>2007-04-10T09:31:24Z</time></trkpt>
<trkpt lat="46.179853873327374" lon="8.779383162036538"><ele>754.77221679688</ele><time>2007-04-10T09:31:30Z</time></trkpt>
<trkpt lat="46.179746920242906" lon="8.77892299555242"><ele>758.61743164062</ele><time>2007-04-10T09:31:52Z</time></trkpt>
<trkpt lat="46.17974356748164" lon="8.778900532051921"><ele>758.13696289062</ele><time>2007-04-10T09:31:53Z</time></trkpt>
<trkpt lat="46.17970316670835" lon="8.778470288962126"><ele>761.50146484375</ele><time>2007-04-10T09:32:13Z</time></trkpt>
<trkpt lat="46.17977114394307" lon="8.777686413377523"><ele>767.75</ele><time>2007-04-10T09:32:48Z</time></trkpt>
<trkpt lat="46.179954539984465" lon="8.777165729552507"><ele>773.03735351562</ele><time>2007-04-10T09:33:17Z</time></trkpt>
<trkpt lat="46.179851023480296" lon="8.776929443702102"><ele>775.92114257812</ele><time>2007-04-10T09:33:29Z</time></trkpt>
<trkpt lat="46.179855298250914" lon="8.776667173951864"><ele>778.80517578125</ele><time>2007-04-10T09:33:40Z</time></trkpt>
<trkpt lat="46.179853957146406" lon="8.776644123718143"><ele>779.28564453125</ele><time>2007-04-10T09:33:41Z</time></trkpt>
<trkpt lat="46.17980626411736" lon="8.775952868163586"><ele>782.65063476562</ele><time>2007-04-10T09:34:09Z</time></trkpt>
<trkpt lat="46.17978321388364" lon="8.775831498205662"><ele>783.61181640625</ele><time>2007-04-10T09:34:14Z</time></trkpt>
<trkpt lat="46.17975144647062" lon="8.775473423302174"><ele>786.97631835938</ele><time>2007-04-10T09:34:30Z</time></trkpt>
<trkpt lat="46.179762594401836" lon="8.77496900036931"><ele>790.34106445312</ele><time>2007-04-10T09:34:51Z</time></trkpt>
<trkpt lat="46.179882790893316" lon="8.77449743449688"><ele>794.66674804688</ele><time>2007-04-10T09:35:12Z</time></trkpt>
<trkpt lat="46.18046642281115" lon="8.772954409942031"><ele>806.20263671875</ele><time>2007-04-10T09:36:29Z</time></trkpt>
<trkpt lat="46.180501794442534" lon="8.77295047044754"><ele>807.1640625</ele><time>2007-04-10T09:36:32Z</time></trkpt>
<trkpt lat="46.18045234121382" lon="8.77286396920681"><ele>807.64477539062</ele><time>2007-04-10T09:38:35Z</time></trkpt>
<trkpt lat="46.18044286966324" lon="8.772891126573086"><ele>813.89331054688</ele><time>2007-04-10T09:54:05Z</time></trkpt>
<trkpt lat="46.1804430373013" lon="8.772890958935022"><ele>811.970703125</ele><time>2007-04-10T09:54:18Z</time></trkpt>
<trkpt lat="46.1804430373013" lon="8.77289087511599"><ele>811.48999023438</ele><time>2007-04-10T09:54:23Z</time></trkpt>
<trkpt lat="46.1804432887584" lon="8.772890791296959"><ele>813.41284179688</ele><time>2007-04-10T09:54:41Z</time></trkpt>
<trkpt lat="46.180435828864574" lon="8.772910069674253"><ele>812.45141601562</ele><time>2007-04-10T09:55:23Z</time></trkpt>
<trkpt lat="46.18040431290865" lon="8.772880397737026"><ele>815.33544921875</ele><time>2007-04-10T09:59:35Z</time></trkpt>
<trkpt lat="46.18045569397509" lon="8.772817784920335"><ele>816.29663085938</ele><time>2007-04-10T10:00:17Z</time></trkpt>
<trkpt lat="46.180394254624844" lon="8.773911204189062"><ele>823.98706054688</ele><time>2007-04-10T10:01:00Z</time></trkpt>
<trkpt lat="46.18027037009597" lon="8.7753667216748"><ele>836.484375</ele><time>2007-04-10T10:02:00Z</time></trkpt>
<trkpt lat="46.18051973171532" lon="8.776091085746884"><ele>843.21337890625</ele><time>2007-04-10T10:02:35Z</time></trkpt>
<trkpt lat="46.180895660072565" lon="8.777533108368516"><ele>854.74926757812</ele><time>2007-04-10T10:03:47Z</time></trkpt>
<trkpt lat="46.18087772279978" lon="8.777849609032273"><ele>856.671875</ele><time>2007-04-10T10:04:03Z</time></trkpt>
<trkpt lat="46.18091007694602" lon="8.777746176347136"><ele>856.19116210938</ele><time>2007-04-10T10:04:07Z</time></trkpt>
<trkpt lat="46.18090278469026" lon="8.777116276323795"><ele>859.55590820312</ele><time>2007-04-10T10:04:30Z</time></trkpt>
<trkpt lat="46.18092147633433" lon="8.776628281921148"><ele>862.43994140625</ele><time>2007-04-10T10:04:50Z</time></trkpt>
<trkpt lat="46.181218111887574" lon="8.774606734514236"><ele>877.82104492188</ele><time>2007-04-10T10:06:17Z</time></trkpt>
<trkpt lat="46.18125130422413" lon="8.774312194436789"><ele>881.66625976562</ele><time>2007-04-10T10:06:30Z</time></trkpt>
<trkpt lat="46.181560680270195" lon="8.773459671065211"><ele>888.3955078125</ele><time>2007-04-10T10:07:12Z</time></trkpt>
<trkpt lat="46.18221438489854" lon="8.772660288959742"><ele>897.52807617188</ele><time>2007-04-10T10:08:05Z</time></trkpt>
<trkpt lat="46.1824272852391" lon="8.772321827709675"><ele>901.37329101562</ele><time>2007-04-10T10:08:24Z</time></trkpt>
<trkpt lat="46.182742612436414" lon="8.772118482738733"><ele>904.73779296875</ele><time>2007-04-10T10:08:47Z</time></trkpt>
<trkpt lat="46.183890430256724" lon="8.771472740918398"><ele>918.67700195312</ele><time>2007-04-10T10:10:11Z</time></trkpt>
<trkpt lat="46.18392337113619" lon="8.771467208862305"><ele>928.29028320312</ele><time>2007-04-10T10:11:08Z</time></trkpt>
<trkpt lat="46.18373293429613" lon="8.771953275427222"><ele>932.6162109375</ele><time>2007-04-10T10:11:29Z</time></trkpt>
<trkpt lat="46.18321493268013" lon="8.773030769079924"><ele>935.5</ele><time>2007-04-10T10:11:58Z</time></trkpt>
<trkpt lat="46.18298375979066" lon="8.773617586120963"><ele>942.2294921875</ele><time>2007-04-10T10:12:30Z</time></trkpt>
<trkpt lat="46.1827795766294" lon="8.774480251595378"><ele>948.95849609375</ele><time>2007-04-10T10:13:11Z</time></trkpt>
<trkpt lat="46.182759795337915" lon="8.77476867288351"><ele>951.84252929688</ele><time>2007-04-10T10:13:23Z</time></trkpt>
<trkpt lat="46.18325164541602" lon="8.77788556739688"><ele>977.79809570312</ele><time>2007-04-10T10:15:55Z</time></trkpt>
<trkpt lat="46.18319255299866" lon="8.777770400047302"><ele>977.31762695312</ele><time>2007-04-10T10:16:53Z</time></trkpt>
<trkpt lat="46.183256758376956" lon="8.777736369520426"><ele>978.27880859375</ele><time>2007-04-10T10:16:58Z</time></trkpt>
<trkpt lat="46.18355515412986" lon="8.77774097956717"><ele>981.64331054688</ele><time>2007-04-10T10:17:16Z</time></trkpt>
<trkpt lat="46.183954467996955" lon="8.77791590988636"><ele>984.52734375</ele><time>2007-04-10T10:17:42Z</time></trkpt>
<trkpt lat="46.18403468281031" lon="8.777928985655308"><ele>985.48852539062</ele><time>2007-04-10T10:17:47Z</time></trkpt>
<trkpt lat="46.1841956153512" lon="8.777799988165498"><ele>988.37280273438</ele><time>2007-04-10T10:17:59Z</time></trkpt>
<trkpt lat="46.18447741493583" lon="8.777826139703393"><ele>992.21801757812</ele><time>2007-04-10T10:18:17Z</time></trkpt>
<trkpt lat="46.184740606695414" lon="8.77850515767932"><ele>997.50512695312</ele><time>2007-04-10T10:18:59Z</time></trkpt>
<trkpt lat="46.18466290645301" lon="8.778058402240276"><ele>1000.8696289062</ele><time>2007-04-10T10:19:17Z</time></trkpt>
<trkpt lat="46.184620410203934" lon="8.777785990387201"><ele>1002.7922363281</ele><time>2007-04-10T10:19:29Z</time></trkpt>
<trkpt lat="46.18439217098057" lon="8.777557164430618"><ele>1006.1569824219</ele><time>2007-04-10T10:19:47Z</time></trkpt>
<trkpt lat="46.184408431872725" lon="8.777118623256683"><ele>1008.0798339844</ele><time>2007-04-10T10:20:11Z</time></trkpt>
<trkpt lat="46.184406001120806" lon="8.777070511132479"><ele>1007.1184082031</ele><time>2007-04-10T10:20:59Z</time></trkpt>
<trkpt lat="46.1845013871789" lon="8.775207968428731"><ele>1009.5217285156</ele><time>2007-04-10T10:21:41Z</time></trkpt>
<trkpt lat="46.184667432680726" lon="8.774487376213074"><ele>1012.8862304688</ele><time>2007-04-10T10:22:00Z</time></trkpt>
<trkpt lat="46.18481084704399" lon="8.773727724328637"><ele>1016.2507324219</ele><time>2007-04-10T10:22:20Z</time></trkpt>
<trkpt lat="46.18509063497186" lon="8.772871848195791"><ele>1017.2121582031</ele><time>2007-04-10T10:22:41Z</time></trkpt>
<trkpt lat="46.18518275208771" lon="8.772792052477598"><ele>1018.6540527344</ele><time>2007-04-10T10:22:47Z</time></trkpt>
<trkpt lat="46.185236647725105" lon="8.772797249257565"><ele>1019.134765625</ele><time>2007-04-10T10:22:50Z</time></trkpt>
<trkpt lat="46.18524754419923" lon="8.772876290604472"><ele>1020.0961914062</ele><time>2007-04-10T10:22:54Z</time></trkpt>
<trkpt lat="46.185172190889716" lon="8.774307752028108"><ele>1033.5544433594</ele><time>2007-04-10T10:24:06Z</time></trkpt>
<trkpt lat="46.18564769625664" lon="8.777393465861678"><ele>1054.7036132812</ele><time>2007-04-10T10:26:18Z</time></trkpt>
<trkpt lat="46.185791194438934" lon="8.778211204335093"><ele>1063.8359375</ele><time>2007-04-10T10:27:05Z</time></trkpt>
<trkpt lat="46.1858724988997" lon="8.778183963149786"><ele>1064.3166503906</ele><time>2007-04-10T10:27:11Z</time></trkpt>
<trkpt lat="46.18616712279618" lon="8.776455447077751"><ele>1073.4494628906</ele><time>2007-04-10T10:28:24Z</time></trkpt>
<trkpt lat="46.186417657881975" lon="8.775426736101508"><ele>1082.5817871094</ele><time>2007-04-10T10:29:11Z</time></trkpt>
<trkpt lat="46.186551013961434" lon="8.774995571002364"><ele>1086.9077148438</ele><time>2007-04-10T10:29:37Z</time></trkpt>
<trkpt lat="46.18654875084758" lon="8.77467823214829"><ele>1090.2724609375</ele><time>2007-04-10T10:29:53Z</time></trkpt>
<trkpt lat="46.18651187047362" lon="8.77467529848218"><ele>1091.2336425781</ele><time>2007-04-10T10:31:35Z</time></trkpt>
<trkpt lat="46.186510948464274" lon="8.774678651243448"><ele>1091.7143554688</ele><time>2007-04-10T10:31:41Z</time></trkpt>
<trkpt lat="46.18651078082621" lon="8.774679154157639"><ele>1090.7529296875</ele><time>2007-04-10T10:31:42Z</time></trkpt>
<trkpt lat="46.18651011027396" lon="8.774681501090527"><ele>1075.8525390625</ele><time>2007-04-10T10:31:47Z</time></trkpt>
<trkpt lat="46.186510026454926" lon="8.774681836366653"><ele>1075.8525390625</ele><time>2007-04-10T10:31:48Z</time></trkpt>
<trkpt lat="46.186509020626545" lon="8.774684434756637"><ele>1077.7751464844</ele><time>2007-04-10T10:32:00Z</time></trkpt>
<trkpt lat="46.18650935590267" lon="8.774685021489859"><ele>1089.7917480469</ele><time>2007-04-10T10:32:05Z</time></trkpt>
<trkpt lat="46.1865096911788" lon="8.774685859680176"><ele>1092.67578125</ele><time>2007-04-10T10:32:17Z</time></trkpt>
<trkpt lat="46.1865096911788" lon="8.774685859680176"><ele>1092.67578125</ele><time>2007-04-10T10:32:18Z</time></trkpt>
<trkpt lat="46.18676290847361" lon="8.774320157244802"><ele>1097.0014648438</ele><time>2007-04-10T10:34:41Z</time></trkpt>
<trkpt lat="46.186851002275944" lon="8.774341782554984"><ele>1098.443359375</ele><time>2007-04-10T10:34:49Z</time></trkpt>
<trkpt lat="46.18738233111799" lon="8.775043934583664"><ele>1108.5373535156</ele><time>2007-04-10T10:35:51Z</time></trkpt>
<trkpt lat="46.18753345683217" lon="8.775242920964956"><ele>1111.9020996094</ele><time>2007-04-10T10:36:09Z</time></trkpt>
<trkpt lat="46.18794333189726" lon="8.775919927284122"><ele>1119.1120605469</ele><time>2007-04-10T10:36:55Z</time></trkpt>
<trkpt lat="46.18813728913665" lon="8.776016319170594"><ele>1124.3991699219</ele><time>2007-04-10T10:37:15Z</time></trkpt>
<trkpt lat="46.18838648311794" lon="8.77624623477459"><ele>1128.2443847656</ele><time>2007-04-10T10:37:40Z</time></trkpt>
<trkpt lat="46.18853031657636" lon="8.776584025472403"><ele>1132.5705566406</ele><time>2007-04-10T10:38:03Z</time></trkpt>
<trkpt lat="46.18887632153928" lon="8.777050813660026"><ele>1138.3383789062</ele><time>2007-04-10T10:38:42Z</time></trkpt>
<trkpt lat="46.18931846693158" lon="8.777230940759182"><ele>1144.5866699219</ele><time>2007-04-10T10:39:17Z</time></trkpt>
<trkpt lat="46.189384181052446" lon="8.77728994935751"><ele>1145.5480957031</ele><time>2007-04-10T10:39:22Z</time></trkpt>
<trkpt lat="46.18962474167347" lon="8.777185762301087"><ele>1148.9128417969</ele><time>2007-04-10T10:39:42Z</time></trkpt>
<trkpt lat="46.189884496852756" lon="8.776871943846345"><ele>1151.796875</ele><time>2007-04-10T10:40:06Z</time></trkpt>
<trkpt lat="46.190123967826366" lon="8.776708915829659"><ele>1156.6032714844</ele><time>2007-04-10T10:40:29Z</time></trkpt>
<trkpt lat="46.19017895311117" lon="8.77674269489944"><ele>1157.5646972656</ele><time>2007-04-10T10:40:35Z</time></trkpt>
<trkpt lat="46.1909095197916" lon="8.776292754337192"><ele>1167.1779785156</ele><time>2007-04-10T10:41:42Z</time></trkpt>
<trkpt lat="46.191399190574884" lon="8.775775926187634"><ele>1168.1391601562</ele><time>2007-04-10T10:42:11Z</time></trkpt>
<trkpt lat="46.19196538813412" lon="8.77523235976696"><ele>1170.0617675781</ele><time>2007-04-10T10:42:41Z</time></trkpt>
<trkpt lat="46.19215649552643" lon="8.775491276755929"><ele>1170.0617675781</ele><time>2007-04-10T10:42:53Z</time></trkpt>
<trkpt lat="46.192480539903045" lon="8.776328209787607"><ele>1171.5036621094</ele><time>2007-04-10T10:43:15Z</time></trkpt>
<trkpt lat="46.19248079136014" lon="8.776493752375245"><ele>1171.5036621094</ele><time>2007-04-10T10:43:18Z</time></trkpt>
<trkpt lat="46.192505434155464" lon="8.776696594431996"><ele>1171.0231933594</ele><time>2007-04-10T10:43:21Z</time></trkpt>
<trkpt lat="46.192949675023556" lon="8.778143310919404"><ele>1172.9458007812</ele><time>2007-04-10T10:43:47Z</time></trkpt>
<trkpt lat="46.19302812963724" lon="8.778351601213217"><ele>1172.9458007812</ele><time>2007-04-10T10:43:51Z</time></trkpt>
<trkpt lat="46.193047408014536" lon="8.779440326616168"><ele>1175.8295898438</ele><time>2007-04-10T10:44:14Z</time></trkpt>
<trkpt lat="46.193211525678635" lon="8.780215652659535"><ele>1183.0395507812</ele><time>2007-04-10T10:44:47Z</time></trkpt>
<trkpt lat="46.19353615678847" lon="8.780826106667519"><ele>1181.59765625</ele><time>2007-04-10T10:45:11Z</time></trkpt>
<trkpt lat="46.1935933213681" lon="8.78090682439506"><ele>1180.6364746094</ele><time>2007-04-10T10:45:13Z</time></trkpt>
<trkpt lat="46.193820387125015" lon="8.780508683994412"><ele>1181.59765625</ele><time>2007-04-10T10:45:24Z</time></trkpt>
<trkpt lat="46.19458531960845" lon="8.779566809535027"><ele>1188.3269042969</ele><time>2007-04-10T10:46:05Z</time></trkpt>
<trkpt lat="46.19586456567049" lon="8.778800955042243"><ele>1197.4594726562</ele><time>2007-04-10T10:47:23Z</time></trkpt>
<trkpt lat="46.1960591096431" lon="8.778439443558455"><ele>1200.3435058594</ele><time>2007-04-10T10:47:41Z</time></trkpt>
<trkpt lat="46.19640436023474" lon="8.778124870732427"><ele>1202.7465820312</ele><time>2007-04-10T10:48:11Z</time></trkpt>
<trkpt lat="46.19681834243238" lon="8.778077932074666"><ele>1203.2272949219</ele><time>2007-04-10T10:48:29Z</time></trkpt>
<trkpt lat="46.1970573104918" lon="8.777307383716106"><ele>1203.7080078125</ele><time>2007-04-10T10:48:46Z</time></trkpt>
<trkpt lat="46.197037445381284" lon="8.775826217606664"><ele>1203.7080078125</ele><time>2007-04-10T10:49:17Z</time></trkpt>
<trkpt lat="46.19720047339797" lon="8.775802245363593"><ele>1204.1887207031</ele><time>2007-04-10T10:49:22Z</time></trkpt>
<trkpt lat="46.197691820561886" lon="8.77548842690885"><ele>1204.1887207031</ele><time>2007-04-10T10:49:35Z</time></trkpt>
<trkpt lat="46.198392966762185" lon="8.774404479190707"><ele>1204.1887207031</ele><time>2007-04-10T10:50:02Z</time></trkpt>
<trkpt lat="46.19876068085432" lon="8.774020504206419"><ele>1203.2272949219</ele><time>2007-04-10T10:50:14Z</time></trkpt>
<trkpt lat="46.200400684028864" lon="8.770952560007572"><ele>1210.9177246094</ele><time>2007-04-10T10:51:50Z</time></trkpt>
<trkpt lat="46.2004663143307" lon="8.770914087072015"><ele>1211.3984375</ele><time>2007-04-10T10:51:53Z</time></trkpt>
<trkpt lat="46.20046899653971" lon="8.771049790084362"><ele>1211.3984375</ele><time>2007-04-10T10:51:58Z</time></trkpt>
<trkpt lat="46.200267830863595" lon="8.771342234686017"><ele>1214.7631835938</ele><time>2007-04-10T10:52:17Z</time></trkpt>
<trkpt lat="46.20001578703523" lon="8.771928632631898"><ele>1220.5310058594</ele><time>2007-04-10T10:52:51Z</time></trkpt>
<trkpt lat="46.199868097901344" lon="8.772206911817193"><ele>1223.8955078125</ele><time>2007-04-10T10:53:10Z</time></trkpt>
<trkpt lat="46.19954539462924" lon="8.773110900074244"><ele>1234.9509277344</ele><time>2007-04-10T10:54:05Z</time></trkpt>
<trkpt lat="46.1994956061244" lon="8.77332966774702"><ele>1236.3928222656</ele><time>2007-04-10T10:54:37Z</time></trkpt>
<trkpt lat="46.199378008022904" lon="8.773799808695912"><ele>1242.6413574219</ele><time>2007-04-10T10:55:11Z</time></trkpt>
<trkpt lat="46.19928547181189" lon="8.7740577198565"><ele>1244.5639648438</ele><time>2007-04-10T10:55:27Z</time></trkpt>
<trkpt lat="46.19922730140388" lon="8.774143885821104"><ele>1247.9287109375</ele><time>2007-04-10T10:55:35Z</time></trkpt>
<trkpt lat="46.19929133914411" lon="8.774288389831781"><ele>1248.8898925781</ele><time>2007-04-10T10:55:53Z</time></trkpt>
<trkpt lat="46.19984898716211" lon="8.77319279126823"><ele>1258.0224609375</ele><time>2007-04-10T10:57:05Z</time></trkpt>
<trkpt lat="46.199983516708016" lon="8.772986428812146"><ele>1260.9064941406</ele><time>2007-04-10T10:57:21Z</time></trkpt>
<trkpt lat="46.20051006786525" lon="8.772452417761087"><ele>1270.51953125</ele><time>2007-04-10T10:58:17Z</time></trkpt>
<trkpt lat="46.20057209394872" lon="8.772423416376114"><ele>1270.51953125</ele><time>2007-04-10T10:58:23Z</time></trkpt>
<trkpt lat="46.20063152164221" lon="8.772476557642221"><ele>1271.9614257812</ele><time>2007-04-10T10:58:29Z</time></trkpt>
<trkpt lat="46.20042339898646" lon="8.772615110501647"><ele>1273.4035644531</ele><time>2007-04-10T10:58:55Z</time></trkpt>
<trkpt lat="46.200419375672936" lon="8.772619972005486"><ele>1273.8840332031</ele><time>2007-04-10T10:59:18Z</time></trkpt>
<trkpt lat="46.20022508315742" lon="8.772889282554388"><ele>1277.2490234375</ele><time>2007-04-10T10:59:41Z</time></trkpt>
<trkpt lat="46.20006741955876" lon="8.77319865860045"><ele>1281.0942382812</ele><time>2007-04-10T11:00:01Z</time></trkpt>
<trkpt lat="46.20006130076945" lon="8.773213243111968"><ele>1280.6135253906</ele><time>2007-04-10T11:00:02Z</time></trkpt>
<trkpt lat="46.200055265799165" lon="8.773188181221485"><ele>1281.0942382812</ele><time>2007-04-10T11:00:21Z</time></trkpt>
<trkpt lat="46.199973626062274" lon="8.773402674123645"><ele>1284.4587402344</ele><time>2007-04-10T11:00:34Z</time></trkpt>
<trkpt lat="46.19981068186462" lon="8.773850183933973"><ele>1287.3425292969</ele><time>2007-04-10T11:00:59Z</time></trkpt>
<trkpt lat="46.199650671333075" lon="8.774377489462495"><ele>1292.6301269531</ele><time>2007-04-10T11:01:29Z</time></trkpt>
<trkpt lat="46.199480183422565" lon="8.775242501869798"><ele>1302.2429199219</ele><time>2007-04-10T11:02:24Z</time></trkpt>
<trkpt lat="46.19937775656581" lon="8.775385580956936"><ele>1305.6076660156</ele><time>2007-04-10T11:02:35Z</time></trkpt>
<trkpt lat="46.19913049042225" lon="8.775591608136892"><ele>1308.4916992188</ele><time>2007-04-10T11:02:59Z</time></trkpt>
<trkpt lat="46.19909277185798" lon="8.775670314207673"><ele>1309.453125</ele><time>2007-04-10T11:03:05Z</time></trkpt>
<trkpt lat="46.19905924424529" lon="8.776191333308816"><ele>1315.2209472656</ele><time>2007-04-10T11:03:36Z</time></trkpt>
<trkpt lat="46.198890851810575" lon="8.776493165642023"><ele>1318.5854492188</ele><time>2007-04-10T11:04:00Z</time></trkpt>
<trkpt lat="46.198888001963496" lon="8.77650766633451"><ele>1318.5854492188</ele><time>2007-04-10T11:04:01Z</time></trkpt>
<trkpt lat="46.19878649711609" lon="8.776613948866725"><ele>1321.9499511719</ele><time>2007-04-10T11:04:12Z</time></trkpt>
<trkpt lat="46.1983922123909" lon="8.777089202776551"><ele>1328.1987304688</ele><time>2007-04-10T11:04:53Z</time></trkpt>
<trkpt lat="46.19835818186402" lon="8.777280393987894"><ele>1330.1213378906</ele><time>2007-04-10T11:05:03Z</time></trkpt>
<trkpt lat="46.19845239445567" lon="8.777276203036308"><ele>1331.5632324219</ele><time>2007-04-10T11:06:42Z</time></trkpt>
<trkpt lat="46.1983715929091" lon="8.777274107560515"><ele>1331.5632324219</ele><time>2007-04-10T11:07:19Z</time></trkpt>
<trkpt lat="46.1984233930707" lon="8.777247369289398"><ele>1333.0051269531</ele><time>2007-04-10T11:10:40Z</time></trkpt>
<trkpt lat="46.19845868088305" lon="8.777185259386897"><ele>1333.9665527344</ele><time>2007-04-10T11:10:44Z</time></trkpt>
<trkpt lat="46.198453484103084" lon="8.777223397046328"><ele>1333.9665527344</ele><time>2007-04-10T11:10:48Z</time></trkpt>
<trkpt lat="46.19840394705534" lon="8.777294727042317"><ele>1333.0051269531</ele><time>2007-04-10T11:11:04Z</time></trkpt>
<trkpt lat="46.19840428233147" lon="8.777293888852"><ele>1333.0051269531</ele><time>2007-04-10T11:11:05Z</time></trkpt>
<trkpt lat="46.19832976721227" lon="8.777250554412603"><ele>1332.0439453125</ele><time>2007-04-10T11:11:11Z</time></trkpt>
<trkpt lat="46.19840151630342" lon="8.777200682088733"><ele>1333.9665527344</ele><time>2007-04-10T11:11:16Z</time></trkpt>
<trkpt lat="46.19938446208835" lon="8.776339273899794"><ele>1346.9443359375</ele><time>2007-04-10T11:12:41Z</time></trkpt>
<trkpt lat="46.19947926141322" lon="8.776144394651055"><ele>1350.3090820312</ele><time>2007-04-10T11:12:54Z</time></trkpt>
<trkpt lat="46.19951228611171" lon="8.77604247070849"><ele>1352.2314453125</ele><time>2007-04-10T11:13:00Z</time></trkpt>
<trkpt lat="46.20042683556676" lon="8.774974951520562"><ele>1367.6125488281</ele><time>2007-04-10T11:14:36Z</time></trkpt>
<trkpt lat="46.20055826380849" lon="8.77471980638802"><ele>1370.9772949219</ele><time>2007-04-10T11:14:53Z</time></trkpt>
<trkpt lat="46.20061794295907" lon="8.774643195793033"><ele>1370.9772949219</ele><time>2007-04-10T11:14:59Z</time></trkpt>
<trkpt lat="46.200754484161735" lon="8.7745360750705"><ele>1373.861328125</ele><time>2007-04-10T11:15:11Z</time></trkpt>
<trkpt lat="46.201067296788096" lon="8.774366676807404"><ele>1378.1872558594</ele><time>2007-04-10T11:15:35Z</time></trkpt>
<trkpt lat="46.201293440535665" lon="8.774282606318593"><ele>1381.5517578125</ele><time>2007-04-10T11:15:53Z</time></trkpt>
<trkpt lat="46.20148479938507" lon="8.774224268272519"><ele>1383.4743652344</ele><time>2007-04-10T11:16:09Z</time></trkpt>
<trkpt lat="46.201571552082896" lon="8.774174144491553"><ele>1384.4357910156</ele><time>2007-04-10T11:16:17Z</time></trkpt>
<trkpt lat="46.201576916500926" lon="8.774274392053485"><ele>1385.3969726562</ele><time>2007-04-10T11:16:23Z</time></trkpt>
<trkpt lat="46.201381450518966" lon="8.774449406191707"><ele>1389.2424316406</ele><time>2007-04-10T11:16:41Z</time></trkpt>
<trkpt lat="46.20125086046755" lon="8.77462886273861"><ele>1391.6457519531</ele><time>2007-04-10T11:16:56Z</time></trkpt>
<trkpt lat="46.20111582800746" lon="8.774757357314229"><ele>1395.9716796875</ele><time>2007-04-10T11:17:27Z</time></trkpt>
<trkpt lat="46.20107291266322" lon="8.77490010112524"><ele>1398.3747558594</ele><time>2007-04-10T11:17:47Z</time></trkpt>
<trkpt lat="46.20095011778176" lon="8.775191120803356"><ele>1401.7395019531</ele><time>2007-04-10T11:18:04Z</time></trkpt>
<trkpt lat="46.20089395903051" lon="8.775411397218704"><ele>1403.662109375</ele><time>2007-04-10T11:18:17Z</time></trkpt>
<trkpt lat="46.2007668055594" lon="8.77585094422102"><ele>1407.0268554688</ele><time>2007-04-10T11:18:42Z</time></trkpt>
<trkpt lat="46.20065507479012" lon="8.77607281319797"><ele>1410.3913574219</ele><time>2007-04-10T11:18:55Z</time></trkpt>
<trkpt lat="46.200369419530034" lon="8.776644375175238"><ele>1415.6787109375</ele><time>2007-04-10T11:19:41Z</time></trkpt>
<trkpt lat="46.20027495548129" lon="8.776868088170886"><ele>1419.0432128906</ele><time>2007-04-10T11:19:58Z</time></trkpt>
<trkpt lat="46.20011578314006" lon="8.777300929650664"><ele>1421.9272460938</ele><time>2007-04-10T11:20:27Z</time></trkpt>
<trkpt lat="46.20004713535309" lon="8.777472088113427"><ele>1425.2917480469</ele><time>2007-04-10T11:20:50Z</time></trkpt>
<trkpt lat="46.19994797743857" lon="8.777694124728441"><ele>1426.7338867188</ele><time>2007-04-10T11:21:07Z</time></trkpt>
<trkpt lat="46.19971043430269" lon="8.77802143804729"><ele>1430.0983886719</ele><time>2007-04-10T11:21:30Z</time></trkpt>
<trkpt lat="46.19967992417514" lon="8.778090253472328"><ele>1429.6176757812</ele><time>2007-04-10T11:21:34Z</time></trkpt>
<trkpt lat="46.199749326333404" lon="8.77810257486999"><ele>1430.5791015625</ele><time>2007-04-10T11:21:41Z</time></trkpt>
<trkpt lat="46.199903804808855" lon="8.777941893786192"><ele>1433.9436035156</ele><time>2007-04-10T11:21:54Z</time></trkpt>
<trkpt lat="46.200605034828186" lon="8.777343844994903"><ele>1443.5568847656</ele><time>2007-04-10T11:22:53Z</time></trkpt>
<trkpt lat="46.20099529623985" lon="8.776979483664036"><ele>1450.2861328125</ele><time>2007-04-10T11:23:30Z</time></trkpt>
<trkpt lat="46.2012208532542" lon="8.776943190023303"><ele>1452.2087402344</ele><time>2007-04-10T11:23:47Z</time></trkpt>
<trkpt lat="46.20136996731162" lon="8.777165645733476"><ele>1456.0539550781</ele><time>2007-04-10T11:24:05Z</time></trkpt>
<trkpt lat="46.20138798840344" lon="8.777609383687377"><ele>1459.4187011719</ele><time>2007-04-10T11:24:27Z</time></trkpt>
<trkpt lat="46.20133928954601" lon="8.77810257486999"><ele>1461.8220214844</ele><time>2007-04-10T11:24:52Z</time></trkpt>
<trkpt lat="46.20134926401079" lon="8.778490908443928"><ele>1463.7443847656</ele><time>2007-04-10T11:25:20Z</time></trkpt>
<trkpt lat="46.20136342942715" lon="8.778546396642923"><ele>1463.7443847656</ele><time>2007-04-10T11:25:53Z</time></trkpt>
<trkpt lat="46.201275922358036" lon="8.778471881523728"><ele>1465.1865234375</ele><time>2007-04-10T11:26:08Z</time></trkpt>
<trkpt lat="46.201169304549694" lon="8.778287814930081"><ele>1469.0319824219</ele><time>2007-04-10T11:26:29Z</time></trkpt>
<trkpt lat="46.20110308751464" lon="8.778267782181501"><ele>1471.9157714844</ele><time>2007-04-10T11:26:42Z</time></trkpt>
<trkpt lat="46.200962103903294" lon="8.778329053893685"><ele>1474.3190917969</ele><time>2007-04-10T11:27:02Z</time></trkpt>
<trkpt lat="46.200887337327" lon="8.778473641723394"><ele>1476.2416992188</ele><time>2007-04-10T11:27:17Z</time></trkpt>
<trkpt lat="46.20084752328694" lon="8.778614709153771"><ele>1479.6062011719</ele><time>2007-04-10T11:27:34Z</time></trkpt>
<trkpt lat="46.20083386078477" lon="8.778679333627224"><ele>1481.5288085938</ele><time>2007-04-10T11:27:41Z</time></trkpt>
<trkpt lat="46.20081961154938" lon="8.778810258954763"><ele>1484.4130859375</ele><time>2007-04-10T11:28:05Z</time></trkpt>
<trkpt lat="46.200812654569745" lon="8.77898988313973"><ele>1487.7775878906</ele><time>2007-04-10T11:28:35Z</time></trkpt>
<trkpt lat="46.20079253800213" lon="8.779053669422865"><ele>1490.6613769531</ele><time>2007-04-10T11:28:47Z</time></trkpt>
<trkpt lat="46.200791615992785" lon="8.77919314429164"><ele>1493.0646972656</ele><time>2007-04-10T11:29:16Z</time></trkpt>
<trkpt lat="46.200752556324005" lon="8.779309401288629"><ele>1496.4294433594</ele><time>2007-04-10T11:29:39Z</time></trkpt>
<trkpt lat="46.200735960155725" lon="8.779325997456908"><ele>1497.390625</ele><time>2007-04-10T11:30:12Z</time></trkpt>
<trkpt lat="46.200691955164075" lon="8.779441164806485"><ele>1500.7553710938</ele><time>2007-04-10T11:30:30Z</time></trkpt>
<trkpt lat="46.20067217387259" lon="8.779547363519669"><ele>1503.6394042969</ele><time>2007-04-10T11:30:49Z</time></trkpt>
<trkpt lat="46.20060721412301" lon="8.779691783711314"><ele>1506.5231933594</ele><time>2007-04-10T11:31:18Z</time></trkpt>
<trkpt lat="46.200486263260245" lon="8.78001113422215"><ele>1513.2524414062</ele><time>2007-04-10T11:32:01Z</time></trkpt>
<trkpt lat="46.20047343894839" lon="8.780140550807118"><ele>1515.1750488281</ele><time>2007-04-10T11:32:30Z</time></trkpt>
<trkpt lat="46.200476456433535" lon="8.780162846669555"><ele>1515.6557617188</ele><time>2007-04-10T11:32:48Z</time></trkpt>
<trkpt lat="46.200441252440214" lon="8.780256640166044"><ele>1516.6171875</ele><time>2007-04-10T11:33:36Z</time></trkpt>
<trkpt lat="46.200432535260916" lon="8.78035705536604"><ele>1519.9816894531</ele><time>2007-04-10T11:33:51Z</time></trkpt>
<trkpt lat="46.20041962713003" lon="8.780467864125967"><ele>1523.3464355469</ele><time>2007-04-10T11:34:08Z</time></trkpt>
<trkpt lat="46.20039456523955" lon="8.780596777796745"><ele>1526.2302246094</ele><time>2007-04-10T11:34:25Z</time></trkpt>
<trkpt lat="46.20036028325558" lon="8.780733067542315"><ele>1530.0754394531</ele><time>2007-04-10T11:34:43Z</time></trkpt>
<trkpt lat="46.200352907180786" lon="8.780945464968681"><ele>1532.9594726562</ele><time>2007-04-10T11:35:11Z</time></trkpt>
<trkpt lat="46.200283002108335" lon="8.781657759100199"><ele>1548.8212890625</ele><time>2007-04-10T11:37:29Z</time></trkpt>
<trkpt lat="46.200120309367776" lon="8.78210443072021"><ele>1563.7214355469</ele><time>2007-04-10T11:39:36Z</time></trkpt>
<trkpt lat="46.20011762715876" lon="8.782109040766954"><ele>1563.7214355469</ele><time>2007-04-10T11:39:48Z</time></trkpt>
<trkpt lat="46.20004713535309" lon="8.782308781519532"><ele>1567.0864257812</ele><time>2007-04-10T11:40:16Z</time></trkpt>
<trkpt lat="46.1999721173197" lon="8.782432582229376"><ele>1570.4509277344</ele><time>2007-04-10T11:40:35Z</time></trkpt>
<trkpt lat="46.199666848406196" lon="8.783483421429992"><ele>1586.7932128906</ele><time>2007-04-10T11:42:35Z</time></trkpt>
<trkpt lat="46.19963189586997" lon="8.783671678975224"><ele>1588.7160644531</ele><time>2007-04-10T11:42:54Z</time></trkpt>
<trkpt lat="46.19965477846563" lon="8.783740494400263"><ele>1588.2353515625</ele><time>2007-04-10T11:44:35Z</time></trkpt>
<trkpt lat="46.19967011734843" lon="8.784067388623953"><ele>1591.5998535156</ele><time>2007-04-10T11:44:53Z</time></trkpt>
<trkpt lat="46.199704399332404" lon="8.784946231171489"><ele>1595.92578125</ele><time>2007-04-10T11:45:36Z</time></trkpt>
<trkpt lat="46.19961471296847" lon="8.78629982471466"><ele>1606.01953125</ele><time>2007-04-10T11:47:00Z</time></trkpt>
<trkpt lat="46.19959476403892" lon="8.786506187170744"><ele>1605.5390625</ele><time>2007-04-10T11:47:35Z</time></trkpt>
<trkpt lat="46.19957020506263" lon="8.786406442523003"><ele>1603.6164550781</ele><time>2007-04-10T11:47:51Z</time></trkpt>
<trkpt lat="46.199582777917385" lon="8.786373334005475"><ele>1605.0583496094</ele><time>2007-04-10T11:49:49Z</time></trkpt>
<trkpt lat="46.199574479833245" lon="8.78636478446424"><ele>1608.4228515625</ele><time>2007-04-10T11:52:21Z</time></trkpt>
<trkpt lat="46.19953910820186" lon="8.78636964596808"><ele>1606.5002441406</ele><time>2007-04-10T12:04:11Z</time></trkpt>
<trkpt lat="46.19941094890237" lon="8.786496799439192"><ele>1603.1357421875</ele><time>2007-04-10T12:04:19Z</time></trkpt>
<trkpt lat="46.19928144849837" lon="8.786714728921652"><ele>1599.7712402344</ele><time>2007-04-10T12:04:29Z</time></trkpt>
<trkpt lat="46.19909889064729" lon="8.787054531276226"><ele>1596.8872070312</ele><time>2007-04-10T12:04:46Z</time></trkpt>
<trkpt lat="46.19912990368903" lon="8.787225941196084"><ele>1597.3679199219</ele><time>2007-04-10T12:04:51Z</time></trkpt>
<trkpt lat="46.199617395177484" lon="8.789070462808013"><ele>1588.7160644531</ele><time>2007-04-10T12:05:33Z</time></trkpt>
<trkpt lat="46.19966559112072" lon="8.789442703127861"><ele>1587.2739257812</ele><time>2007-04-10T12:05:37Z</time></trkpt>
<trkpt lat="46.19962653145194" lon="8.789856685325503"><ele>1581.9868164062</ele><time>2007-04-10T12:05:42Z</time></trkpt>
<trkpt lat="46.199516309425235" lon="8.790049469098449"><ele>1580.0642089844</ele><time>2007-04-10T12:05:46Z</time></trkpt>
<trkpt lat="46.19939284399152" lon="8.790233116596937"><ele>1576.6994628906</ele><time>2007-04-10T12:05:52Z</time></trkpt>
<trkpt lat="46.19899998418987" lon="8.790860502049327"><ele>1566.6057128906</ele><time>2007-04-10T12:06:09Z</time></trkpt>
<trkpt lat="46.198534704744816" lon="8.79136199131608"><ele>1558.4343261719</ele><time>2007-04-10T12:06:25Z</time></trkpt>
<trkpt lat="46.19847385212779" lon="8.791453940793872"><ele>1555.5505371094</ele><time>2007-04-10T12:06:28Z</time></trkpt>
<trkpt lat="46.19845482520759" lon="8.791479002684355"><ele>1555.5505371094</ele><time>2007-04-10T12:06:29Z</time></trkpt>
<trkpt lat="46.19833270087838" lon="8.791646305471659"><ele>1553.6279296875</ele><time>2007-04-10T12:06:35Z</time></trkpt>
<trkpt lat="46.198172522708774" lon="8.791865073144436"><ele>1550.7438964844</ele><time>2007-04-10T12:06:39Z</time></trkpt>
<trkpt lat="46.19800337590277" lon="8.792059449478984"><ele>1545.9372558594</ele><time>2007-04-10T12:06:43Z</time></trkpt>
<trkpt lat="46.19794461876154" lon="8.79211644642055"><ele>1544.4951171875</ele><time>2007-04-10T12:06:45Z</time></trkpt>
<trkpt lat="46.19786851108074" lon="8.792290287092328"><ele>1543.0532226562</ele><time>2007-04-10T12:06:48Z</time></trkpt>
<trkpt lat="46.19776910170913" lon="8.792576612904668"><ele>1539.6887207031</ele><time>2007-04-10T12:06:53Z</time></trkpt>
<trkpt lat="46.19768385775387" lon="8.792889174073935"><ele>1536.32421875</ele><time>2007-04-10T12:06:57Z</time></trkpt>
<trkpt lat="46.19763624854386" lon="8.79316795617342"><ele>1533.4401855469</ele><time>2007-04-10T12:07:02Z</time></trkpt>
<trkpt lat="46.19761286303401" lon="8.793339785188437"><ele>1530.0754394531</ele><time>2007-04-10T12:07:05Z</time></trkpt>
<trkpt lat="46.19761319831014" lon="8.79351831972599"><ele>1528.6335449219</ele><time>2007-04-10T12:07:08Z</time></trkpt>
<trkpt lat="46.197718642652035" lon="8.794023245573044"><ele>1525.2687988281</ele><time>2007-04-10T12:07:19Z</time></trkpt>
<trkpt lat="46.19773356243968" lon="8.794063981622458"><ele>1525.2687988281</ele><time>2007-04-10T12:07:20Z</time></trkpt>
<trkpt lat="46.19772710837424" lon="8.794083595275879"><ele>1524.3076171875</ele><time>2007-04-10T12:07:33Z</time></trkpt>
<trkpt lat="46.197770023718476" lon="8.794360784813762"><ele>1522.3850097656</ele><time>2007-04-10T12:08:00Z</time></trkpt>
<trkpt lat="46.19777991436422" lon="8.794417614117265"><ele>1522.3850097656</ele><time>2007-04-10T12:08:01Z</time></trkpt>
<trkpt lat="46.19787714444101" lon="8.794635627418756"><ele>1519.5012207031</ele><time>2007-04-10T12:08:05Z</time></trkpt>
<trkpt lat="46.197943864390254" lon="8.794822208583355"><ele>1516.1364746094</ele><time>2007-04-10T12:08:09Z</time></trkpt>
<trkpt lat="46.19806380942464" lon="8.795012142509222"><ele>1512.7717285156</ele><time>2007-04-10T12:08:13Z</time></trkpt>
<trkpt lat="46.19814000092447" lon="8.795101074501872"><ele>1511.810546875</ele><time>2007-04-10T12:08:15Z</time></trkpt>
<trkpt lat="46.19836941361427" lon="8.795337192714214"><ele>1505.5620117188</ele><time>2007-04-10T12:08:22Z</time></trkpt>
<trkpt lat="46.198488688096404" lon="8.795693423599005"><ele>1501.2360839844</ele><time>2007-04-10T12:08:31Z</time></trkpt>
<trkpt lat="46.1986150033772" lon="8.796012019738555"><ele>1497.390625</ele><time>2007-04-10T12:08:41Z</time></trkpt>
<trkpt lat="46.19860175997019" lon="8.796073039993644"><ele>1495.9487304688</ele><time>2007-04-10T12:08:43Z</time></trkpt>
<trkpt lat="46.19856965728104" lon="8.796263476833701"><ele>1493.0646972656</ele><time>2007-04-10T12:08:49Z</time></trkpt>
<trkpt lat="46.19854719378054" lon="8.796295495703816"><ele>1492.5842285156</ele><time>2007-04-10T12:08:50Z</time></trkpt>
<trkpt lat="46.198512660339475" lon="8.796348050236702"><ele>1491.1420898438</ele><time>2007-04-10T12:08:52Z</time></trkpt>
<trkpt lat="46.19849681854248" lon="8.796425834298134"><ele>1488.7390136719</ele><time>2007-04-10T12:08:55Z</time></trkpt>
<trkpt lat="46.19840461760759" lon="8.79645785316825"><ele>1487.296875</ele><time>2007-04-10T12:09:00Z</time></trkpt>
<trkpt lat="46.19838684797287" lon="8.796464558690786"><ele>1486.8161621094</ele><time>2007-04-10T12:09:01Z</time></trkpt>
<trkpt lat="46.19827151298523" lon="8.796446872875094"><ele>1482.490234375</ele><time>2007-04-10T12:09:07Z</time></trkpt>
<trkpt lat="46.19826505891979" lon="8.796540163457394"><ele>1481.0483398438</ele><time>2007-04-10T12:09:45Z</time></trkpt>
<trkpt lat="46.198279056698084" lon="8.796517197042704"><ele>1482.0095214844</ele><time>2007-04-10T12:11:23Z</time></trkpt>
<trkpt lat="46.19826380163431" lon="8.796504708006978"><ele>1482.0095214844</ele><time>2007-04-10T12:11:40Z</time></trkpt>
<trkpt lat="46.198382657021284" lon="8.796790363267064"><ele>1485.8549804688</ele><time>2007-04-10T12:11:51Z</time></trkpt>
<trkpt lat="46.19838450103998" lon="8.796827998012304"><ele>1485.8549804688</ele><time>2007-04-10T12:11:52Z</time></trkpt>
<trkpt lat="46.19836698286235" lon="8.797134356573224"><ele>1488.7390136719</ele><time>2007-04-10T12:12:00Z</time></trkpt>
<trkpt lat="46.198419872671366" lon="8.797317668795586"><ele>1482.970703125</ele><time>2007-04-10T12:12:23Z</time></trkpt>
<trkpt lat="46.19842045940459" lon="8.797317249700427"><ele>1488.2583007812</ele><time>2007-04-10T12:12:24Z</time></trkpt>
<trkpt lat="46.19842171669006" lon="8.797314818948507"><ele>1489.2194824219</ele><time>2007-04-10T12:12:28Z</time></trkpt>
<trkpt lat="46.198747688904405" lon="8.797309957444668"><ele>1485.8549804688</ele><time>2007-04-10T12:12:47Z</time></trkpt>
<trkpt lat="46.19919368997216" lon="8.79730811342597"><ele>1477.203125</ele><time>2007-04-10T12:13:06Z</time></trkpt>
<trkpt lat="46.19994604960084" lon="8.797481870278716"><ele>1466.6284179688</ele><time>2007-04-10T12:13:53Z</time></trkpt>
<trkpt lat="46.200152998790145" lon="8.797313561663032"><ele>1462.783203125</ele><time>2007-04-10T12:13:58Z</time></trkpt>
<trkpt lat="46.20030328631401" lon="8.797128237783909"><ele>1459.4187011719</ele><time>2007-04-10T12:14:02Z</time></trkpt>
<trkpt lat="46.2004438508302" lon="8.796863537281752"><ele>1456.0539550781</ele><time>2007-04-10T12:14:10Z</time></trkpt>
<trkpt lat="46.20047779753804" lon="8.796822801232338"><ele>1455.5734863281</ele><time>2007-04-10T12:14:12Z</time></trkpt>
<trkpt lat="46.20137566700578" lon="8.796161971986294"><ele>1434.9050292969</ele><time>2007-04-10T12:14:52Z</time></trkpt>
<trkpt lat="46.20144314132631" lon="8.796125259250402"><ele>1433.462890625</ele><time>2007-04-10T12:14:54Z</time></trkpt>
<trkpt lat="46.20153651572764" lon="8.796028783544898"><ele>1431.5402832031</ele><time>2007-04-10T12:14:59Z</time></trkpt>
<trkpt lat="46.20144188404083" lon="8.795982096344233"><ele>1432.5017089844</ele><time>2007-04-10T12:15:15Z</time></trkpt>
<trkpt lat="46.20122571475804" lon="8.796254424378276"><ele>1429.1369628906</ele><time>2007-04-10T12:15:29Z</time></trkpt>
<trkpt lat="46.2011743336916" lon="8.796300860121846"><ele>1428.17578125</ele><time>2007-04-10T12:15:31Z</time></trkpt>
<trkpt lat="46.20101314969361" lon="8.796538738533854"><ele>1422.4079589844</ele><time>2007-04-10T12:15:41Z</time></trkpt>
<trkpt lat="46.200888929888606" lon="8.796930257230997"><ele>1415.6787109375</ele><time>2007-04-10T12:15:53Z</time></trkpt>
<trkpt lat="46.20079102925956" lon="8.79716545343399"><ele>1410.3913574219</ele><time>2007-04-10T12:16:00Z</time></trkpt>
<trkpt lat="46.200728164985776" lon="8.797335103154182"><ele>1407.5075683594</ele><time>2007-04-10T12:16:05Z</time></trkpt>
<trkpt lat="46.20011452585459" lon="8.798434641212225"><ele>1386.8388671875</ele><time>2007-04-10T12:16:35Z</time></trkpt>
<trkpt lat="46.199945798143744" lon="8.798656594008207"><ele>1382.9936523438</ele><time>2007-04-10T12:16:41Z</time></trkpt>
<trkpt lat="46.199363926425576" lon="8.799649262800813"><ele>1368.5739746094</ele><time>2007-04-10T12:17:06Z</time></trkpt>
<trkpt lat="46.199003756046295" lon="8.800218813121319"><ele>1360.4028320312</ele><time>2007-04-10T12:17:26Z</time></trkpt>
<trkpt lat="46.19893477298319" lon="8.800486447289586"><ele>1352.7121582031</ele><time>2007-04-10T12:18:05Z</time></trkpt>
<trkpt lat="46.19893125258386" lon="8.800704209133983"><ele>1345.5024414062</ele><time>2007-04-10T12:18:29Z</time></trkpt>
<trkpt lat="46.19876596145332" lon="8.800975698977709"><ele>1339.2536621094</ele><time>2007-04-10T12:18:39Z</time></trkpt>
<trkpt lat="46.19868105277419" lon="8.801217265427113"><ele>1335.4084472656</ele><time>2007-04-10T12:18:45Z</time></trkpt>
<trkpt lat="46.198660684749484" lon="8.80126747302711"><ele>1335.4084472656</ele><time>2007-04-10T12:18:46Z</time></trkpt>
<trkpt lat="46.19847913272679" lon="8.802394336089492"><ele>1311.8564453125</ele><time>2007-04-10T12:19:49Z</time></trkpt>
<trkpt lat="46.198754981160164" lon="8.802288472652435"><ele>1306.0881347656</ele><time>2007-04-10T12:20:06Z</time></trkpt>
<trkpt lat="46.19883016683161" lon="8.802694659680128"><ele>1292.1494140625</ele><time>2007-04-10T12:20:41Z</time></trkpt>
<trkpt lat="46.197611102834344" lon="8.803963847458363"><ele>1285.419921875</ele><time>2007-04-10T12:20:53Z</time></trkpt>
<trkpt lat="46.197056556120515" lon="8.80475576967001"><ele>1284.939453125</ele><time>2007-04-10T12:20:55Z</time></trkpt>
<trkpt lat="46.19734598323703" lon="8.804488638415933"><ele>1281.5747070312</ele><time>2007-04-10T12:21:03Z</time></trkpt>
<trkpt lat="46.19716929271817" lon="8.804555106908083"><ele>1279.1713867188</ele><time>2007-04-10T12:21:10Z</time></trkpt>
<trkpt lat="46.19683686643839" lon="8.804899686947465"><ele>1277.2490234375</ele><time>2007-04-10T12:21:23Z</time></trkpt>
<trkpt lat="46.19671574793756" lon="8.804847802966833"><ele>1277.2490234375</ele><time>2007-04-10T12:21:28Z</time></trkpt>
<trkpt lat="46.196639724075794" lon="8.804594669491053"><ele>1280.6135253906</ele><time>2007-04-10T12:21:42Z</time></trkpt>
<trkpt lat="46.19638063944876" lon="8.804219998419285"><ele>1285.9006347656</ele><time>2007-04-10T12:22:07Z</time></trkpt>
<trkpt lat="46.19617762975395" lon="8.804243048653007"><ele>1289.7458496094</ele><time>2007-04-10T12:22:18Z</time></trkpt>
<trkpt lat="46.19613731279969" lon="8.804204827174544"><ele>1289.7458496094</ele><time>2007-04-10T12:22:21Z</time></trkpt>
<trkpt lat="46.195767084136605" lon="8.803907353430986"><ele>1290.70703125</ele><time>2007-04-10T12:22:47Z</time></trkpt>
<trkpt lat="46.19545661844313" lon="8.803846249356866"><ele>1291.6684570312</ele><time>2007-04-10T12:23:18Z</time></trkpt>
<trkpt lat="46.19538369588554" lon="8.803898468613625"><ele>1289.7458496094</ele><time>2007-04-10T12:23:58Z</time></trkpt>
<trkpt lat="46.19515587575734" lon="8.803819427266717"><ele>1283.0166015625</ele><time>2007-04-10T12:24:12Z</time></trkpt>
<trkpt lat="46.194967618212104" lon="8.803781373426318"><ele>1280.1328125</ele><time>2007-04-10T12:24:23Z</time></trkpt>
<trkpt lat="46.194823952391744" lon="8.803902240470052"><ele>1273.4035644531</ele><time>2007-04-10T12:24:35Z</time></trkpt>
<trkpt lat="46.19484415277839" lon="8.804035931825638"><ele>1268.5969238281</ele><time>2007-04-10T12:25:00Z</time></trkpt>
<trkpt lat="46.19496024213731" lon="8.804068705067039"><ele>1267.1550292969</ele><time>2007-04-10T12:25:11Z</time></trkpt>
<trkpt lat="46.194845074787736" lon="8.804245730862021"><ele>1264.2709960938</ele><time>2007-04-10T12:25:17Z</time></trkpt>
<trkpt lat="46.19478774257004" lon="8.80436441861093"><ele>1262.8291015625</ele><time>2007-04-10T12:25:20Z</time></trkpt>
<trkpt lat="46.1944168433547" lon="8.805092722177505"><ele>1254.1772460938</ele><time>2007-04-10T12:25:36Z</time></trkpt>
<trkpt lat="46.1943235527724" lon="8.805343927815557"><ele>1252.7351074219</ele><time>2007-04-10T12:25:42Z</time></trkpt>
<trkpt lat="46.1945688072592" lon="8.80509833805263"><ele>1248.8898925781</ele><time>2007-04-10T12:25:53Z</time></trkpt>
<trkpt lat="46.19462681002915" lon="8.805037401616573"><ele>1247.4479980469</ele><time>2007-04-10T12:25:58Z</time></trkpt>
<trkpt lat="46.19467416778207" lon="8.805263796821237"><ele>1244.5639648438</ele><time>2007-04-10T12:26:04Z</time></trkpt>
<trkpt lat="46.19465949945152" lon="8.805471919476986"><ele>1242.6413574219</ele><time>2007-04-10T12:26:09Z</time></trkpt>
<trkpt lat="46.194553803652525" lon="8.805797221139073"><ele>1238.7961425781</ele><time>2007-04-10T12:26:15Z</time></trkpt>
<trkpt lat="46.19443025439978" lon="8.806142723187804"><ele>1235.912109375</ele><time>2007-04-10T12:26:23Z</time></trkpt>
<trkpt lat="46.19435925967991" lon="8.806391581892967"><ele>1233.5087890625</ele><time>2007-04-10T12:26:29Z</time></trkpt>
<trkpt lat="46.19427300989628" lon="8.806597525253892"><ele>1229.6635742188</ele><time>2007-04-10T12:26:36Z</time></trkpt>
<trkpt lat="46.19405172765255" lon="8.807055428624153"><ele>1220.5310058594</ele><time>2007-04-10T12:26:59Z</time></trkpt>
<trkpt lat="46.19398861192167" lon="8.806890472769737"><ele>1215.724609375</ele><time>2007-04-10T12:27:06Z</time></trkpt>
<trkpt lat="46.19394670240581" lon="8.806904219090939"><ele>1215.724609375</ele><time>2007-04-10T12:27:22Z</time></trkpt>
<trkpt lat="46.19391066022217" lon="8.807068336755037"><ele>1213.8017578125</ele><time>2007-04-10T12:27:29Z</time></trkpt>
<trkpt lat="46.193926837295294" lon="8.807284757494926"><ele>1210.4370117188</ele><time>2007-04-10T12:27:36Z</time></trkpt>
<trkpt lat="46.19395659305155" lon="8.807437727227807"><ele>1208.5144042969</ele><time>2007-04-10T12:27:41Z</time></trkpt>
<trkpt lat="46.19402909651399" lon="8.807793790474534"><ele>1203.2272949219</ele><time>2007-04-10T12:28:02Z</time></trkpt>
<trkpt lat="46.19417427107692" lon="8.807032210752368"><ele>1203.7080078125</ele><time>2007-04-10T12:28:21Z</time></trkpt>
<trkpt lat="46.1940198764205" lon="8.807182917371392"><ele>1201.3046875</ele><time>2007-04-10T12:28:35Z</time></trkpt>
<trkpt lat="46.19399657472968" lon="8.807266652584076"><ele>1198.9013671875</ele><time>2007-04-10T12:28:40Z</time></trkpt>
<trkpt lat="46.19396070018411" lon="8.807314429432154"><ele>1198.4206542969</ele><time>2007-04-10T12:28:42Z</time></trkpt>
<trkpt lat="46.19392566382885" lon="8.807340497151017"><ele>1196.9787597656</ele><time>2007-04-10T12:28:46Z</time></trkpt>
<trkpt lat="46.19391501881182" lon="8.807413671165705"><ele>1195.5366210938</ele><time>2007-04-10T12:28:49Z</time></trkpt>
<trkpt lat="46.193836061283946" lon="8.80763185210526"><ele>1192.1721191406</ele><time>2007-04-10T12:29:00Z</time></trkpt>
<trkpt lat="46.193543281406164" lon="8.807868892326951"><ele>1187.8461914062</ele><time>2007-04-10T12:29:25Z</time></trkpt>
<trkpt lat="46.19356784038246" lon="8.808051869273186"><ele>1184.9624023438</ele><time>2007-04-10T12:29:34Z</time></trkpt>
<trkpt lat="46.19346004910767" lon="8.80811758339405"><ele>1183.0395507812</ele><time>2007-04-10T12:29:38Z</time></trkpt>
<trkpt lat="46.19344395585358" lon="8.808087576180696"><ele>1182.0783691406</ele><time>2007-04-10T12:29:39Z</time></trkpt>
<trkpt lat="46.193452421575785" lon="8.807817595079541"><ele>1181.1171875</ele><time>2007-04-10T12:29:43Z</time></trkpt>
<trkpt lat="46.19348821230233" lon="8.807513667270541"><ele>1176.791015625</ele><time>2007-04-10T12:29:47Z</time></trkpt>
<trkpt lat="46.19350455701351" lon="8.807423561811447"><ele>1175.3488769531</ele><time>2007-04-10T12:29:49Z</time></trkpt>
<trkpt lat="46.19346633553505" lon="8.807385424152017"><ele>1174.3876953125</ele><time>2007-04-10T12:29:59Z</time></trkpt>
<trkpt lat="46.19339441880584" lon="8.807458681985736"><ele>1172.4650878906</ele><time>2007-04-10T12:30:02Z</time></trkpt>
<trkpt lat="46.19332417845726" lon="8.807565048336983"><ele>1171.0231933594</ele><time>2007-04-10T12:30:04Z</time></trkpt>
<trkpt lat="46.193173890933394" lon="8.807794628664851"><ele>1167.1779785156</ele><time>2007-04-10T12:30:08Z</time></trkpt>
<trkpt lat="46.1931424587965" lon="8.807849194854498"><ele>1166.2165527344</ele><time>2007-04-10T12:30:09Z</time></trkpt>
<trkpt lat="46.19305092841387" lon="8.808027477934957"><ele>1164.7746582031</ele><time>2007-04-10T12:30:12Z</time></trkpt>
<trkpt lat="46.192895863205194" lon="8.808327047154307"><ele>1160.9291992188</ele><time>2007-04-10T12:30:17Z</time></trkpt>
<trkpt lat="46.1927661113441" lon="8.8085778336972"><ele>1158.5258789062</ele><time>2007-04-10T12:30:22Z</time></trkpt>
<trkpt lat="46.19278471916914" lon="8.808423187583685"><ele>1158.0454101562</ele><time>2007-04-10T12:30:31Z</time></trkpt>
<trkpt lat="46.19277046993375" lon="8.808399634435773"><ele>1157.5646972656</ele><time>2007-04-10T12:30:35Z</time></trkpt>
<trkpt lat="46.19260928593576" lon="8.808528212830424"><ele>1149.3935546875</ele><time>2007-04-10T12:30:47Z</time></trkpt>
<trkpt lat="46.19251197203994" lon="8.80874589085579"><ele>1144.5866699219</ele><time>2007-04-10T12:30:53Z</time></trkpt>
<trkpt lat="46.19233192875981" lon="8.809255426749587"><ele>1139.2995605469</ele><time>2007-04-10T12:32:09Z</time></trkpt>
<trkpt lat="46.192328575998545" lon="8.809302365407348"><ele>1138.8190917969</ele><time>2007-04-10T12:32:10Z</time></trkpt>
<trkpt lat="46.19229412637651" lon="8.809690112248063"><ele>1135.9350585938</ele><time>2007-04-10T12:32:17Z</time></trkpt>
<trkpt lat="46.19230091571808" lon="8.80982137285173"><ele>1135.4543457031</ele><time>2007-04-10T12:32:19Z</time></trkpt>
<trkpt lat="46.19230820797384" lon="8.809945592656732"><ele>1134.4931640625</ele><time>2007-04-10T12:32:21Z</time></trkpt>
<trkpt lat="46.192354056984186" lon="8.810848658904433"><ele>1122.9572753906</ele><time>2007-04-10T12:32:36Z</time></trkpt>
<trkpt lat="46.19238314218819" lon="8.811094500124454"><ele>1120.0732421875</ele><time>2007-04-10T12:32:41Z</time></trkpt>
<trkpt lat="46.192395966500044" lon="8.811138086020947"><ele>1120.0732421875</ele><time>2007-04-10T12:32:42Z</time></trkpt>
<trkpt lat="46.19248908944428" lon="8.81157017312944"><ele>1114.7858886719</ele><time>2007-04-10T12:32:52Z</time></trkpt>
<trkpt lat="46.19308663532138" lon="8.811080921441317"><ele>1111.9020996094</ele><time>2007-04-10T12:32:56Z</time></trkpt>
<trkpt lat="46.193133825436234" lon="8.811103384941816"><ele>1110.4599609375</ele><time>2007-04-10T12:33:03Z</time></trkpt>
<trkpt lat="46.192883625626564" lon="8.811377054080367"><ele>1107.576171875</ele><time>2007-04-10T12:33:10Z</time></trkpt>
<trkpt lat="46.19265806861222" lon="8.811657931655645"><ele>1104.2116699219</ele><time>2007-04-10T12:33:19Z</time></trkpt>
<trkpt lat="46.192615404725075" lon="8.811652902513742"><ele>1103.7309570312</ele><time>2007-04-10T12:33:20Z</time></trkpt>
<trkpt lat="46.19229060597718" lon="8.811348639428616"><ele>1100.3664550781</ele><time>2007-04-10T12:33:29Z</time></trkpt>
<trkpt lat="46.19226789101958" lon="8.811344113200903"><ele>1100.3664550781</ele><time>2007-04-10T12:33:31Z</time></trkpt>
<trkpt lat="46.192359924316406" lon="8.81168207153678"><ele>1093.6369628906</ele><time>2007-04-10T12:33:43Z</time></trkpt>
<trkpt lat="46.192359421402216" lon="8.81172465160489"><ele>1093.15625</ele><time>2007-04-10T12:33:44Z</time></trkpt>
<trkpt lat="46.192371658980846" lon="8.811875944957137"><ele>1090.7529296875</ele><time>2007-04-10T12:33:47Z</time></trkpt>
<trkpt lat="46.192395044490695" lon="8.812002260237932"><ele>1089.3110351562</ele><time>2007-04-10T12:33:49Z</time></trkpt>
<trkpt lat="46.192871890962124" lon="8.812165623530746"><ele>1082.1010742188</ele><time>2007-04-10T12:34:05Z</time></trkpt>
<trkpt lat="46.19286141358316" lon="8.812209628522396"><ele>1080.1784667969</ele><time>2007-04-10T12:34:07Z</time></trkpt>
<trkpt lat="46.192759992554784" lon="8.812380954623222"><ele>1076.3332519531</ele><time>2007-04-10T12:34:11Z</time></trkpt>
<trkpt lat="46.192215252667665" lon="8.812480280175805"><ele>1069.6042480469</ele><time>2007-04-10T12:34:29Z</time></trkpt>
<trkpt lat="46.19210586883128" lon="8.812453793361783"><ele>1068.6428222656</ele><time>2007-04-10T12:34:34Z</time></trkpt>
<trkpt lat="46.192089188843966" lon="8.81291152909398"><ele>1059.5102539062</ele><time>2007-04-10T12:34:46Z</time></trkpt>
<trkpt lat="46.192124309018254" lon="8.813008423894644"><ele>1057.5876464844</ele><time>2007-04-10T12:34:49Z</time></trkpt>
<trkpt lat="46.19246670976281" lon="8.81304438225925"><ele>1050.3776855469</ele><time>2007-04-10T12:35:00Z</time></trkpt>
<trkpt lat="46.19364193640649" lon="8.81193327717483"><ele>1038.361328125</ele><time>2007-04-10T12:35:56Z</time></trkpt>
<trkpt lat="46.193611258640885" lon="8.811984406784177"><ele>1037.3999023438</ele><time>2007-04-10T12:36:02Z</time></trkpt>
<trkpt lat="46.193582927808166" lon="8.812104100361466"><ele>1036.9191894531</ele><time>2007-04-10T12:36:04Z</time></trkpt>
<trkpt lat="46.193465162068605" lon="8.812303002923727"><ele>1034.5158691406</ele><time>2007-04-10T12:36:07Z</time></trkpt>
<trkpt lat="46.19312427006662" lon="8.81277565844357"><ele>1030.1899414062</ele><time>2007-04-10T12:36:14Z</time></trkpt>
<trkpt lat="46.19311111047864" lon="8.812821507453918"><ele>1029.228515625</ele><time>2007-04-10T12:36:16Z</time></trkpt>
<trkpt lat="46.19247442111373" lon="8.813705882057548"><ele>1014.328125</ele><time>2007-04-10T12:36:34Z</time></trkpt>
<trkpt lat="46.192401330918074" lon="8.81381157785654"><ele>1013.3669433594</ele><time>2007-04-10T12:36:36Z</time></trkpt>
<trkpt lat="46.19224425405264" lon="8.814048701897264"><ele>1009.5217285156</ele><time>2007-04-10T12:36:41Z</time></trkpt>
<trkpt lat="46.19219111278653" lon="8.814155906438828"><ele>1008.5603027344</ele><time>2007-04-10T12:36:44Z</time></trkpt>
<trkpt lat="46.19225808419287" lon="8.814103100448847"><ele>1009.041015625</ele><time>2007-04-10T12:37:17Z</time></trkpt>
<trkpt lat="46.19231156073511" lon="8.81403487175703"><ele>1008.0798339844</ele><time>2007-04-10T12:37:19Z</time></trkpt>
<trkpt lat="46.19275588542223" lon="8.813661457970738"><ele>998.94702148438</ele><time>2007-04-10T12:37:30Z</time></trkpt>
<trkpt lat="46.19408240541816" lon="8.812997108325362"><ele>985.00805664062</ele><time>2007-04-10T12:37:44Z</time></trkpt>
<trkpt lat="46.19418424554169" lon="8.812872637063265"><ele>981.16284179688</ele><time>2007-04-10T12:37:50Z</time></trkpt>
<trkpt lat="46.19438650086522" lon="8.812822680920362"><ele>978.27880859375</ele><time>2007-04-10T12:37:54Z</time></trkpt>
<trkpt lat="46.19458682835102" lon="8.8127292227"><ele>974.43359375</ele><time>2007-04-10T12:38:00Z</time></trkpt>
<trkpt lat="46.1946568172425" lon="8.812709525227547"><ele>972.0302734375</ele><time>2007-04-10T12:38:02Z</time></trkpt>
<trkpt lat="46.194423381239176" lon="8.81307371892035"><ele>967.7041015625</ele><time>2007-04-10T12:38:10Z</time></trkpt>
<trkpt lat="46.19430435821414" lon="8.813289133831859"><ele>963.37841796875</ele><time>2007-04-10T12:38:14Z</time></trkpt>
<trkpt lat="46.19401107542217" lon="8.813735470175743"><ele>960.49438476562</ele><time>2007-04-10T12:38:30Z</time></trkpt>
<trkpt lat="46.19403228163719" lon="8.813812416046858"><ele>947.99731445312</ele><time>2007-04-10T12:39:17Z</time></trkpt>
<trkpt lat="46.19414359331131" lon="8.813924146816134"><ele>939.82592773438</ele><time>2007-04-10T12:39:34Z</time></trkpt>
<trkpt lat="46.19391594082117" lon="8.814280796796083"><ele>935.5</ele><time>2007-04-10T12:39:40Z</time></trkpt>
<trkpt lat="46.19402473792434" lon="8.814404848963022"><ele>929.25146484375</ele><time>2007-04-10T12:39:49Z</time></trkpt>
<trkpt lat="46.19419623166323" lon="8.814368722960353"><ele>925.40625</ele><time>2007-04-10T12:39:54Z</time></trkpt>
<trkpt lat="46.19518437422812" lon="8.813988268375397"><ele>912.42846679688</ele><time>2007-04-10T12:40:35Z</time></trkpt>
<trkpt lat="46.195423007011414" lon="8.81395767442882"><ele>906.66040039062</ele><time>2007-04-10T12:40:46Z</time></trkpt>
<trkpt lat="46.19529484771192" lon="8.813997404649854"><ele>904.73779296875</ele><time>2007-04-10T12:40:51Z</time></trkpt>
<trkpt lat="46.19513056240976" lon="8.81402749568224"><ele>902.33447265625</ele><time>2007-04-10T12:40:55Z</time></trkpt>
<trkpt lat="46.19491213001311" lon="8.814255483448505"><ele>898.4892578125</ele><time>2007-04-10T12:41:05Z</time></trkpt>
<trkpt lat="46.19470157660544" lon="8.814981188625097"><ele>886.47290039062</ele><time>2007-04-10T12:41:30Z</time></trkpt>
<trkpt lat="46.1944755166769" lon="8.816343080252409"><ele>848.50073242188</ele><time>2007-04-10T12:43:38Z</time></trkpt>
<trkpt lat="46.19453385472298" lon="8.816455816850066"><ele>846.09765625</ele><time>2007-04-10T12:43:42Z</time></trkpt>
<trkpt lat="46.194652961567044" lon="8.816882371902466"><ele>845.61694335938</ele><time>2007-04-10T12:44:20Z</time></trkpt>
<trkpt lat="46.194962337613106" lon="8.81659529171884"><ele>842.25219726562</ele><time>2007-04-10T12:45:22Z</time></trkpt>
<trkpt lat="46.19511488825083" lon="8.816815735772252"><ele>837.92626953125</ele><time>2007-04-10T12:45:26Z</time></trkpt>
<trkpt lat="46.19503987021744" lon="8.817108515650034"><ele>834.56176757812</ele><time>2007-04-10T12:45:29Z</time></trkpt>
<trkpt lat="46.194715071469545" lon="8.817366594448686"><ele>831.197265625</ele><time>2007-04-10T12:45:33Z</time></trkpt>
<trkpt lat="46.19445523247123" lon="8.817501543089747"><ele>823.98706054688</ele><time>2007-04-10T12:45:36Z</time></trkpt>
<trkpt lat="46.19437820278108" lon="8.81753783673048"><ele>821.58374023438</ele><time>2007-04-10T12:45:37Z</time></trkpt>
<trkpt lat="46.1941924598068" lon="8.817855510860682"><ele>817.25805664062</ele><time>2007-04-10T12:45:42Z</time></trkpt>
<trkpt lat="46.19419329799712" lon="8.81794628687203"><ele>816.29663085938</ele><time>2007-04-10T12:45:43Z</time></trkpt>
<trkpt lat="46.194221545010805" lon="8.818150972947478"><ele>813.89331054688</ele><time>2007-04-10T12:45:46Z</time></trkpt>
<trkpt lat="46.19424325414002" lon="8.81827175617218"><ele>814.85473632812</ele><time>2007-04-10T12:45:48Z</time></trkpt>
<trkpt lat="46.19404829107225" lon="8.81860451772809"><ele>810.0478515625</ele><time>2007-04-10T12:45:55Z</time></trkpt>
<trkpt lat="46.1940145958215" lon="8.818609714508057"><ele>807.64477539062</ele><time>2007-04-10T12:46:07Z</time></trkpt>
<trkpt lat="46.194030940532684" lon="8.818614408373833"><ele>807.64477539062</ele><time>2007-04-10T12:46:22Z</time></trkpt>
<trkpt lat="46.19389398023486" lon="8.818753883242607"><ele>806.68334960938</ele><time>2007-04-10T12:46:26Z</time></trkpt>
<trkpt lat="46.19369172491133" lon="8.819079352542758"><ele>800.43505859375</ele><time>2007-04-10T12:46:30Z</time></trkpt>
<trkpt lat="46.193608744069934" lon="8.819295605644584"><ele>796.10913085938</ele><time>2007-04-10T12:46:32Z</time></trkpt>
<trkpt lat="46.19330951012671" lon="8.820078140124679"><ele>789.8603515625</ele><time>2007-04-10T12:46:40Z</time></trkpt>
<trkpt lat="46.19309761561453" lon="8.82040310651064"><ele>786.97631835938</ele><time>2007-04-10T12:46:43Z</time></trkpt>
<trkpt lat="46.192942801862955" lon="8.82062941789627"><ele>783.13110351562</ele><time>2007-04-10T12:46:45Z</time></trkpt>
<trkpt lat="46.192717999219894" lon="8.821017416194081"><ele>775.4404296875</ele><time>2007-04-10T12:46:49Z</time></trkpt>
<trkpt lat="46.19267961010337" lon="8.821190921589732"><ele>771.59521484375</ele><time>2007-04-10T12:46:53Z</time></trkpt>
<trkpt lat="46.192656895145774" lon="8.821198968216777"><ele>772.556640625</ele><time>2007-04-10T12:47:03Z</time></trkpt>
<trkpt lat="46.19248171336949" lon="8.821482192724943"><ele>769.19213867188</ele><time>2007-04-10T12:47:11Z</time></trkpt>
<trkpt lat="46.192002184689045" lon="8.822301188483834"><ele>762.46264648438</ele><time>2007-04-10T12:47:19Z</time></trkpt>
<trkpt lat="46.19177176617086" lon="8.822593884542584"><ele>757.17553710938</ele><time>2007-04-10T12:47:22Z</time></trkpt>
<trkpt lat="46.19136583060026" lon="8.823136445134878"><ele>750.92700195312</ele><time>2007-04-10T12:47:28Z</time></trkpt>
<trkpt lat="46.191067434847355" lon="8.823341047391295"><ele>746.60107421875</ele><time>2007-04-10T12:47:32Z</time></trkpt>
<trkpt lat="46.19088060222566" lon="8.823458142578602"><ele>745.6396484375</ele><time>2007-04-10T12:47:34Z</time></trkpt>
<trkpt lat="46.190571980550885" lon="8.823673222213984"><ele>742.27514648438</ele><time>2007-04-10T12:47:37Z</time></trkpt>
<trkpt lat="46.19011298753321" lon="8.823771206662059"><ele>737.46850585938</ele><time>2007-04-10T12:47:41Z</time></trkpt>
<trkpt lat="46.18997326120734" lon="8.823822168633342"><ele>734.58471679688</ele><time>2007-04-10T12:47:43Z</time></trkpt>
<trkpt lat="46.18979916907847" lon="8.82421100512147"><ele>731.21997070312</ele><time>2007-04-10T12:47:54Z</time></trkpt>
<trkpt lat="46.1897923797369" lon="8.82431116886437"><ele>731.21997070312</ele><time>2007-04-10T12:47:56Z</time></trkpt>
<trkpt lat="46.190015003085136" lon="8.824806539341807"><ele>728.3359375</ele><time>2007-04-10T12:48:02Z</time></trkpt>
<trkpt lat="46.190089266747236" lon="8.824977949261665"><ele>724.49072265625</ele><time>2007-04-10T12:48:04Z</time></trkpt>
<trkpt lat="46.190131260082126" lon="8.825182635337114"><ele>721.60668945312</ele><time>2007-04-10T12:48:08Z</time></trkpt>
<trkpt lat="46.19013721123338" lon="8.825236279517412"><ele>721.60668945312</ele><time>2007-04-10T12:48:09Z</time></trkpt>
<trkpt lat="46.19012455455959" lon="8.825696026906371"><ele>718.2421875</ele><time>2007-04-10T12:48:14Z</time></trkpt>
<trkpt lat="46.189816435799" lon="8.825820749625564"><ele>713.916015625</ele><time>2007-04-10T12:48:19Z</time></trkpt>
<trkpt lat="46.18962557986379" lon="8.825772050768137"><ele>711.0322265625</ele><time>2007-04-10T12:48:25Z</time></trkpt>
<trkpt lat="46.18958811275661" lon="8.825969193130732"><ele>708.62890625</ele><time>2007-04-10T12:48:36Z</time></trkpt>
<trkpt lat="46.18957587517798" lon="8.82603800855577"><ele>708.62890625</ele><time>2007-04-10T12:49:48Z</time></trkpt>
<trkpt lat="46.189697496593" lon="8.82631117478013"><ele>706.70629882812</ele><time>2007-04-10T12:49:53Z</time></trkpt>
<trkpt lat="46.18978877551854" lon="8.826565397903323"><ele>705.7451171875</ele><time>2007-04-10T12:49:56Z</time></trkpt>
<trkpt lat="46.1899409070611" lon="8.826880138367414"><ele>702.38037109375</ele><time>2007-04-10T12:49:59Z</time></trkpt>
<trkpt lat="46.189991952851415" lon="8.82698642089963"><ele>699.49633789062</ele><time>2007-04-10T12:50:00Z</time></trkpt>
<trkpt lat="46.19000729173422" lon="8.827229496091604"><ele>699.015625</ele><time>2007-04-10T12:50:02Z</time></trkpt>
<trkpt lat="46.18998533114791" lon="8.827425800263882"><ele>695.65112304688</ele><time>2007-04-10T12:50:04Z</time></trkpt>
<trkpt lat="46.18977955542505" lon="8.827655296772718"><ele>693.24780273438</ele><time>2007-04-10T12:50:08Z</time></trkpt>
<trkpt lat="46.189698250964284" lon="8.827691338956356"><ele>692.76733398438</ele><time>2007-04-10T12:50:09Z</time></trkpt>
<trkpt lat="46.18932383134961" lon="8.827867778018117"><ele>688.92211914062</ele><time>2007-04-10T12:50:13Z</time></trkpt>
<trkpt lat="46.18909425102174" lon="8.828171705827117"><ele>684.11547851562</ele><time>2007-04-10T12:50:16Z</time></trkpt>
<trkpt lat="46.189002469182014" lon="8.828477477654815"><ele>680.27001953125</ele><time>2007-04-10T12:50:18Z</time></trkpt>
<trkpt lat="46.18885436095297" lon="8.829182144254446"><ele>674.50219726562</ele><time>2007-04-10T12:50:22Z</time></trkpt>
<trkpt lat="46.188776744529605" lon="8.82958598434925"><ele>670.17626953125</ele><time>2007-04-10T12:50:24Z</time></trkpt>
<trkpt lat="46.188693260774016" lon="8.82999049499631"><ele>664.408203125</ele><time>2007-04-10T12:50:26Z</time></trkpt>
<trkpt lat="46.18866509757936" lon="8.830112619325519"><ele>662.00512695312</ele><time>2007-04-10T12:50:27Z</time></trkpt>
<trkpt lat="46.18858303874731" lon="8.830364244058728"><ele>656.7177734375</ele><time>2007-04-10T12:50:30Z</time></trkpt>
<trkpt lat="46.188436690717936" lon="8.83057538419962"><ele>655.75659179688</ele><time>2007-04-10T12:50:33Z</time></trkpt>
<trkpt lat="46.18836016394198" lon="8.830635230988264"><ele>654.79516601562</ele><time>2007-04-10T12:50:34Z</time></trkpt>
<trkpt lat="46.188068306073546" lon="8.830893728882074"><ele>648.06591796875</ele><time>2007-04-10T12:50:39Z</time></trkpt>
<trkpt lat="46.1880758497864" lon="8.831005711108446"><ele>647.1044921875</ele><time>2007-04-10T12:50:40Z</time></trkpt>
<trkpt lat="46.18818171322346" lon="8.831435283645988"><ele>640.85595703125</ele><time>2007-04-10T12:50:44Z</time></trkpt>
<trkpt lat="46.188145419582725" lon="8.83163577876985"><ele>637.49145507812</ele><time>2007-04-10T12:50:47Z</time></trkpt>
<trkpt lat="46.187982726842165" lon="8.83143494836986"><ele>634.607421875</ele><time>2007-04-10T12:50:50Z</time></trkpt>
<trkpt lat="46.187776951119304" lon="8.830975536257029"><ele>629.32006835938</ele><time>2007-04-10T12:50:54Z</time></trkpt>
<trkpt lat="46.18760772049427" lon="8.830938069149852"><ele>623.07177734375</ele><time>2007-04-10T12:50:58Z</time></trkpt>
<trkpt lat="46.1876252386719" lon="8.83105969056487"><ele>621.62963867188</ele><time>2007-04-10T12:51:00Z</time></trkpt>
<trkpt lat="46.18769715540111" lon="8.831232357770205"><ele>620.18774414062</ele><time>2007-04-10T12:51:02Z</time></trkpt>
<trkpt lat="46.18768718093634" lon="8.832082701846957"><ele>612.97778320312</ele><time>2007-04-10T12:51:08Z</time></trkpt>
<trkpt lat="46.18757561780512" lon="8.83243314921856"><ele>608.65185546875</ele><time>2007-04-10T12:51:11Z</time></trkpt>
<trkpt lat="46.18764778599143" lon="8.832937236875296"><ele>604.326171875</ele><time>2007-04-10T12:51:17Z</time></trkpt>
<trkpt lat="46.187778459861875" lon="8.832883927971125"><ele>603.36450195312</ele><time>2007-04-10T12:51:19Z</time></trkpt>
<trkpt lat="46.187986163422465" lon="8.832838833332062"><ele>600</ele><time>2007-04-10T12:51:23Z</time></trkpt>
<trkpt lat="46.18797333911061" lon="8.832904295995831"><ele>600</ele><time>2007-04-10T12:51:24Z</time></trkpt>
<trkpt lat="46.18773805908859" lon="8.833154663443565"><ele>598.55786132812</ele><time>2007-04-10T12:51:29Z</time></trkpt>
<trkpt lat="46.187608977779746" lon="8.833292461931705"><ele>595.67407226562</ele><time>2007-04-10T12:51:31Z</time></trkpt>
<trkpt lat="46.18744586594403" lon="8.833179892972112"><ele>593.27075195312</ele><time>2007-04-10T12:51:35Z</time></trkpt>
<trkpt lat="46.187397334724665" lon="8.832987444475293"><ele>591.82885742188</ele><time>2007-04-10T12:51:37Z</time></trkpt>
<trkpt lat="46.187268337234855" lon="8.832553513348103"><ele>587.9833984375</ele><time>2007-04-10T12:51:41Z</time></trkpt>
<trkpt lat="46.18721008300781" lon="8.832307169213891"><ele>584.61889648438</ele><time>2007-04-10T12:51:43Z</time></trkpt>
<trkpt lat="46.18712358176708" lon="8.831964349374175"><ele>580.77368164062</ele><time>2007-04-10T12:51:46Z</time></trkpt>
<trkpt lat="46.187052335590124" lon="8.831663690507412"><ele>577.8896484375</ele><time>2007-04-10T12:51:49Z</time></trkpt>
<trkpt lat="46.18698184378445" lon="8.831340065225959"><ele>575.96704101562</ele><time>2007-04-10T12:51:52Z</time></trkpt>
<trkpt lat="46.186899952590466" lon="8.831115178763866"><ele>574.52514648438</ele><time>2007-04-10T12:51:54Z</time></trkpt>
<trkpt lat="46.18677908554673" lon="8.830782417207956"><ele>571.64086914062</ele><time>2007-04-10T12:51:57Z</time></trkpt>
<trkpt lat="46.186721082776785" lon="8.829887565225363"><ele>567.31518554688</ele><time>2007-04-10T12:52:04Z</time></trkpt>
<trkpt lat="46.18663617409766" lon="8.829475427046418"><ele>563.95043945312</ele><time>2007-04-10T12:52:07Z</time></trkpt>
<trkpt lat="46.18649510666728" lon="8.829065216705203"><ele>559.62475585938</ele><time>2007-04-10T12:52:10Z</time></trkpt>
<trkpt lat="46.18631707504392" lon="8.828638745471835"><ele>556.26000976562</ele><time>2007-04-10T12:52:14Z</time></trkpt>
<trkpt lat="46.186194280162454" lon="8.828304475173354"><ele>552.89526367188</ele><time>2007-04-10T12:52:17Z</time></trkpt>
<trkpt lat="46.18602169677615" lon="8.82781027816236"><ele>549.53076171875</ele><time>2007-04-10T12:52:22Z</time></trkpt>
<trkpt lat="46.18579278700054" lon="8.827145844697952"><ele>544.72424316406</ele><time>2007-04-10T12:52:29Z</time></trkpt>
<trkpt lat="46.18576009757817" lon="8.82686773315072"><ele>540.39831542969</ele><time>2007-04-10T12:52:33Z</time></trkpt>
<trkpt lat="46.18575372733176" lon="8.826790619641542"><ele>539.91760253906</ele><time>2007-04-10T12:52:34Z</time></trkpt>
<trkpt lat="46.185836289078" lon="8.826266918331385"><ele>536.07238769531</ele><time>2007-04-10T12:52:39Z</time></trkpt>
<trkpt lat="46.18600057438016" lon="8.825718071311712"><ele>533.6689453125</ele><time>2007-04-10T12:52:43Z</time></trkpt>
<trkpt lat="46.18600644171238" lon="8.82502849213779"><ele>528.3818359375</ele><time>2007-04-10T12:52:47Z</time></trkpt>
<trkpt lat="46.18595615029335" lon="8.82413431070745"><ele>522.13317871094</ele><time>2007-04-10T12:52:52Z</time></trkpt>
<trkpt lat="46.185937291011214" lon="8.823888637125492"><ele>518.28784179688</ele><time>2007-04-10T12:52:54Z</time></trkpt>
<trkpt lat="46.18592815473676" lon="8.823800627142191"><ele>515.40405273438</ele><time>2007-04-10T12:52:55Z</time></trkpt>
<trkpt lat="46.1859015841037" lon="8.823607843369246"><ele>514.44262695312</ele><time>2007-04-10T12:52:57Z</time></trkpt>
<trkpt lat="46.185868391767144" lon="8.823321098461747"><ele>513.96203613281</ele><time>2007-04-10T12:53:00Z</time></trkpt>
<trkpt lat="46.18589596822858" lon="8.823093697428703"><ele>511.55871582031</ele><time>2007-04-10T12:53:02Z</time></trkpt>
<trkpt lat="46.18600501678884" lon="8.822595980018377"><ele>507.71350097656</ele><time>2007-04-10T12:53:07Z</time></trkpt>
<trkpt lat="46.18595757521689" lon="8.822402777150273"><ele>506.75207519531</ele><time>2007-04-10T12:53:17Z</time></trkpt>
<trkpt lat="46.18595028296113" lon="8.822433622553945"><ele>506.271484375</ele><time>2007-04-10T12:53:40Z</time></trkpt>
<trkpt lat="46.18574107065797" lon="8.823565263301134"><ele>502.90673828125</ele><time>2007-04-10T12:53:58Z</time></trkpt>
<trkpt lat="46.18550478480756" lon="8.824029704555869"><ele>500.02294921875</ele><time>2007-04-10T12:54:03Z</time></trkpt>
<trkpt lat="46.18532239459455" lon="8.824445866048336"><ele>498.58093261719</ele><time>2007-04-10T12:54:07Z</time></trkpt>
<trkpt lat="46.185276210308075" lon="8.82489019073546"><ele>496.65832519531</ele><time>2007-04-10T12:54:11Z</time></trkpt>
<trkpt lat="46.18529456667602" lon="8.825136115774512"><ele>495.21618652344</ele><time>2007-04-10T12:54:13Z</time></trkpt>
<trkpt lat="46.18536145426333" lon="8.825901299715042"><ele>493.77429199219</ele><time>2007-04-10T12:54:19Z</time></trkpt>
<trkpt lat="46.185244945809245" lon="8.826412511989474"><ele>490.89038085938</ele><time>2007-04-10T12:54:23Z</time></trkpt>
<trkpt lat="46.185199934989214" lon="8.826940655708313"><ele>488.00646972656</ele><time>2007-04-10T12:54:27Z</time></trkpt>
<trkpt lat="46.18521326221526" lon="8.829926205798984"><ele>486.564453125</ele><time>2007-04-10T12:54:50Z</time></trkpt>
<trkpt lat="46.18528626859188" lon="8.831668887287378"><ele>483.68041992188</ele><time>2007-04-10T12:55:05Z</time></trkpt>
<trkpt lat="46.185321137309074" lon="8.832479249686003"><ele>482.23852539062</ele><time>2007-04-10T12:55:12Z</time></trkpt>
<trkpt lat="46.18534343317151" lon="8.836097549647093"><ele>490.40979003906</ele><time>2007-04-10T12:55:59Z</time></trkpt>
<trkpt lat="46.18529456667602" lon="8.837087955325842"><ele>494.25500488281</ele><time>2007-04-10T12:56:28Z</time></trkpt>
<trkpt lat="46.18517713621259" lon="8.837158279493451"><ele>493.77429199219</ele><time>2007-04-10T12:56:33Z</time></trkpt>
<trkpt lat="46.18486306630075" lon="8.837264310568571"><ele>491.37097167969</ele><time>2007-04-10T12:56:41Z</time></trkpt>
<trkpt lat="46.18481780402362" lon="8.837233800441027"><ele>489.92907714844</ele><time>2007-04-10T12:57:29Z</time></trkpt>
<trkpt lat="46.18478838354349" lon="8.837323570623994"><ele>489.44836425781</ele><time>2007-04-10T12:57:33Z</time></trkpt>
<trkpt lat="46.18476432748139" lon="8.83741426281631"><ele>488.9677734375</ele><time>2007-04-10T12:57:35Z</time></trkpt>
<trkpt lat="46.18472082540393" lon="8.837668150663376"><ele>487.52563476562</ele><time>2007-04-10T12:57:38Z</time></trkpt>
<trkpt lat="46.18458269163966" lon="8.838445488363504"><ele>483.68041992188</ele><time>2007-04-10T12:57:46Z</time></trkpt>
<trkpt lat="46.18489223532379" lon="8.838836923241615"><ele>480.31591796875</ele><time>2007-04-10T12:57:52Z</time></trkpt>
<trkpt lat="46.18514754809439" lon="8.838979080319405"><ele>475.98986816406</ele><time>2007-04-10T12:57:55Z</time></trkpt>
<trkpt lat="46.18521778844297" lon="8.839029874652624"><ele>475.98986816406</ele><time>2007-04-10T12:57:56Z</time></trkpt>
<trkpt lat="46.185277216136456" lon="8.839183431118727"><ele>474.06726074219</ele><time>2007-04-10T12:57:58Z</time></trkpt>
<trkpt lat="46.18510932661593" lon="8.839324163272977"><ele>473.10607910156</ele><time>2007-04-10T12:58:01Z</time></trkpt>
<trkpt lat="46.18485753424466" lon="8.839616859331727"><ele>471.18334960938</ele><time>2007-04-10T12:58:06Z</time></trkpt>
<trkpt lat="46.185106141492724" lon="8.839801345020533"><ele>468.78002929688</ele><time>2007-04-10T12:58:10Z</time></trkpt>
<trkpt lat="46.18545038625598" lon="8.839800087735057"><ele>463.01208496094</ele><time>2007-04-10T12:58:14Z</time></trkpt>
<trkpt lat="46.18538836017251" lon="8.840116588398814"><ele>460.60876464844</ele><time>2007-04-10T12:58:17Z</time></trkpt>
<trkpt lat="46.18526564911008" lon="8.840291937813163"><ele>459.64758300781</ele><time>2007-04-10T12:58:19Z</time></trkpt>
<trkpt lat="46.185207311064005" lon="8.840375170111656"><ele>458.20556640625</ele><time>2007-04-10T12:58:20Z</time></trkpt>
<trkpt lat="46.18516406044364" lon="8.840608522295952"><ele>456.76354980469</ele><time>2007-04-10T12:58:23Z</time></trkpt>
<trkpt lat="46.185470754280686" lon="8.840544652193785"><ele>454.8408203125</ele><time>2007-04-10T12:58:29Z</time></trkpt>
<trkpt lat="46.18563621304929" lon="8.840377265587449"><ele>452.91821289062</ele><time>2007-04-10T12:58:32Z</time></trkpt>
<trkpt lat="46.18572983890772" lon="8.840578850358725"><ele>449.07299804688</ele><time>2007-04-10T12:58:35Z</time></trkpt>
<trkpt lat="46.18610090576112" lon="8.840714050456882"><ele>445.22766113281</ele><time>2007-04-10T12:58:43Z</time></trkpt>
<trkpt lat="46.1861626803875" lon="8.841045973822474"><ele>443.78576660156</ele><time>2007-04-10T12:58:47Z</time></trkpt>
<trkpt lat="46.186159159988165" lon="8.841365408152342"><ele>441.86315917969</ele><time>2007-04-10T12:58:50Z</time></trkpt>
<trkpt lat="46.18611507117748" lon="8.841730691492558"><ele>438.97912597656</ele><time>2007-04-10T12:58:53Z</time></trkpt>
<trkpt lat="46.186105851083994" lon="8.841863293200731"><ele>438.01782226562</ele><time>2007-04-10T12:58:54Z</time></trkpt>
<trkpt lat="46.18613979779184" lon="8.842508615925908"><ele>436.57592773438</ele><time>2007-04-10T12:58:59Z</time></trkpt>
<trkpt lat="46.18614750914276" lon="8.842658484354615"><ele>433.69189453125</ele><time>2007-04-10T12:59:01Z</time></trkpt>
<trkpt lat="46.18607576005161" lon="8.842847496271133"><ele>432.25</ele><time>2007-04-10T12:59:05Z</time></trkpt>
<trkpt lat="46.18597752414644" lon="8.842330081388354"><ele>431.28857421875</ele><time>2007-04-10T12:59:12Z</time></trkpt>
<trkpt lat="46.185405710712075" lon="8.842295045033097"><ele>428.88537597656</ele><time>2007-04-10T12:59:20Z</time></trkpt>
<trkpt lat="46.18498384952545" lon="8.84229470975697"><ele>425.52075195312</ele><time>2007-04-10T12:59:25Z</time></trkpt>
<trkpt lat="46.18463155813515" lon="8.842015424743295"><ele>421.19482421875</ele><time>2007-04-10T12:59:29Z</time></trkpt>
<trkpt lat="46.18417994119227" lon="8.84165114723146"><ele>416.86889648438</ele><time>2007-04-10T12:59:34Z</time></trkpt>
<trkpt lat="46.18410810828209" lon="8.841575123369694"><ele>416.86889648438</ele><time>2007-04-10T12:59:35Z</time></trkpt>
<trkpt lat="46.18405111134052" lon="8.8415074814111"><ele>414.94616699219</ele><time>2007-04-10T12:59:36Z</time></trkpt>
<trkpt lat="46.18392990902066" lon="8.841289887204766"><ele>413.02355957031</ele><time>2007-04-10T12:59:39Z</time></trkpt>
<trkpt lat="46.183864530175924" lon="8.841454675421119"><ele>410.62023925781</ele><time>2007-04-10T12:59:45Z</time></trkpt>
<trkpt lat="46.18395044468343" lon="8.84160915389657"><ele>409.65905761719</ele><time>2007-04-10T12:59:47Z</time></trkpt>
<trkpt lat="46.18403485044837" lon="8.841786263510585"><ele>409.17834472656</ele><time>2007-04-10T12:59:49Z</time></trkpt>
<trkpt lat="46.184114729985595" lon="8.842156073078513"><ele>407.25561523438</ele><time>2007-04-10T12:59:52Z</time></trkpt>
<trkpt lat="46.1843560449779" lon="8.842601152136922"><ele>405.81372070312</ele><time>2007-04-10T12:59:56Z</time></trkpt>
<trkpt lat="46.18458126671612" lon="8.842938272282481"><ele>402.44909667969</ele><time>2007-04-10T12:59:59Z</time></trkpt>
<trkpt lat="46.18465142324567" lon="8.843064000830054"><ele>399.08435058594</ele><time>2007-04-10T13:00:00Z</time></trkpt>
<trkpt lat="46.18472132831812" lon="8.843192998319864"><ele>398.60375976562</ele><time>2007-04-10T13:00:01Z</time></trkpt>
<trkpt lat="46.18498963303864" lon="8.843702031299472"><ele>394.75854492188</ele><time>2007-04-10T13:00:05Z</time></trkpt>
<trkpt lat="46.18525550700724" lon="8.844273258000612"><ele>391.87451171875</ele><time>2007-04-10T13:00:10Z</time></trkpt>
<trkpt lat="46.18488326668739" lon="8.844560086727142"><ele>388.51000976562</ele><time>2007-04-10T13:00:15Z</time></trkpt>
<trkpt lat="46.184799866750836" lon="8.844601577147841"><ele>387.54858398438</ele><time>2007-04-10T13:00:16Z</time></trkpt>
<trkpt lat="46.184266190975904" lon="8.844848675653338"><ele>387.54858398438</ele><time>2007-04-10T13:00:20Z</time></trkpt>
<trkpt lat="46.18428505025804" lon="8.845058474689722"><ele>385.6259765625</ele><time>2007-04-10T13:00:22Z</time></trkpt>
<trkpt lat="46.184300975874066" lon="8.845168612897396"><ele>385.14538574219</ele><time>2007-04-10T13:00:23Z</time></trkpt>
<trkpt lat="46.184390662238" lon="8.845345890149474"><ele>384.18408203125</ele><time>2007-04-10T13:00:25Z</time></trkpt>
<trkpt lat="46.18459241464734" lon="8.845328958705068"><ele>380.33874511719</ele><time>2007-04-10T13:00:28Z</time></trkpt>
<trkpt lat="46.18464874103665" lon="8.845284702256322"><ele>380.33874511719</ele><time>2007-04-10T13:00:29Z</time></trkpt>
<trkpt lat="46.18471059948206" lon="8.8452357519418"><ele>379.85803222656</ele><time>2007-04-10T13:00:31Z</time></trkpt>
<trkpt lat="46.184694673866034" lon="8.845392744988203"><ele>379.37744140625</ele><time>2007-04-10T13:00:35Z</time></trkpt>
<trkpt lat="46.18458587676287" lon="8.845533728599548"><ele>379.37744140625</ele><time>2007-04-10T13:00:38Z</time></trkpt>
<trkpt lat="46.18439334444702" lon="8.845662474632263"><ele>376.97424316406</ele><time>2007-04-10T13:00:41Z</time></trkpt>
<trkpt lat="46.18409687653184" lon="8.845692398026586"><ele>375.05151367188</ele><time>2007-04-10T13:00:45Z</time></trkpt>
<trkpt lat="46.18394994176924" lon="8.845676640048623"><ele>374.09008789062</ele><time>2007-04-10T13:00:47Z</time></trkpt>
<trkpt lat="46.183704771101475" lon="8.845260730013251"><ele>369.76428222656</ele><time>2007-04-10T13:00:52Z</time></trkpt>
<trkpt lat="46.18362598121166" lon="8.845007261261344"><ele>367.84155273438</ele><time>2007-04-10T13:00:55Z</time></trkpt>
<trkpt lat="46.183548448607326" lon="8.84475295431912"><ele>364.95764160156</ele><time>2007-04-10T13:00:58Z</time></trkpt>
<trkpt lat="46.18345029652119" lon="8.84430829435587"><ele>362.55432128906</ele><time>2007-04-10T13:01:02Z</time></trkpt>
<trkpt lat="46.18326346389949" lon="8.84403571486473"><ele>361.59313964844</ele><time>2007-04-10T13:01:05Z</time></trkpt>
<trkpt lat="46.18319062516093" lon="8.843971341848373"><ele>360.15112304688</ele><time>2007-04-10T13:01:06Z</time></trkpt>
<trkpt lat="46.18302877061069" lon="8.843626761808991"><ele>357.74780273438</ele><time>2007-04-10T13:01:10Z</time></trkpt>
<trkpt lat="46.18291444145143" lon="8.843616116791964"><ele>356.78637695312</ele><time>2007-04-10T13:01:13Z</time></trkpt>
<trkpt lat="46.18292072787881" lon="8.843778222799301"><ele>356.30578613281</ele><time>2007-04-10T13:01:15Z</time></trkpt>
<trkpt lat="46.18299541063607" lon="8.844411727041006"><ele>352.94116210938</ele><time>2007-04-10T13:01:21Z</time></trkpt>
<trkpt lat="46.18304335512221" lon="8.844698891043663"><ele>349.57653808594</ele><time>2007-04-10T13:01:25Z</time></trkpt>
<trkpt lat="46.182940090075135" lon="8.844482973217964"><ele>348.615234375</ele><time>2007-04-10T13:01:29Z</time></trkpt>
<trkpt lat="46.18280447088182" lon="8.843989111483097"><ele>344.28942871094</ele><time>2007-04-10T13:01:35Z</time></trkpt>
<trkpt lat="46.18252711370587" lon="8.843753160908818"><ele>345.25061035156</ele><time>2007-04-10T13:01:41Z</time></trkpt>
<trkpt lat="46.18223525583744" lon="8.843471948057413"><ele>345.73132324219</ele><time>2007-04-10T13:01:48Z</time></trkpt>
<trkpt lat="46.18231471627951" lon="8.843844691291451"><ele>341.4052734375</ele><time>2007-04-10T13:01:55Z</time></trkpt>
<trkpt lat="46.18257338181138" lon="8.8441720046103"><ele>338.04077148438</ele><time>2007-04-10T13:01:59Z</time></trkpt>
<trkpt lat="46.18268226273358" lon="8.844406362622976"><ele>337.07946777344</ele><time>2007-04-10T13:02:01Z</time></trkpt>
<trkpt lat="46.182780750095844" lon="8.844645163044333"><ele>334.67614746094</ele><time>2007-04-10T13:02:03Z</time></trkpt>
<trkpt lat="46.18261839263141" lon="8.845264334231615"><ele>333.23413085938</ele><time>2007-04-10T13:02:08Z</time></trkpt>
<trkpt lat="46.182482773438096" lon="8.845466589555144"><ele>332.75354003906</ele><time>2007-04-10T13:02:10Z</time></trkpt>
<trkpt lat="46.182390823960304" lon="8.845683764666319"><ele>327.94677734375</ele><time>2007-04-10T13:02:12Z</time></trkpt>
<trkpt lat="46.182369366288185" lon="8.845803625881672"><ele>327.94677734375</ele><time>2007-04-10T13:02:13Z</time></trkpt>
<trkpt lat="46.18236626498401" lon="8.84606790728867"><ele>327.46618652344</ele><time>2007-04-10T13:02:15Z</time></trkpt>
<trkpt lat="46.18238319642842" lon="8.846493791788816"><ele>324.58227539062</ele><time>2007-04-10T13:02:18Z</time></trkpt>
<trkpt lat="46.18240348063409" lon="8.846921771764755"><ele>320.73706054688</ele><time>2007-04-10T13:02:21Z</time></trkpt>
<trkpt lat="46.182425105944276" lon="8.847403144463897"><ele>316.41101074219</ele><time>2007-04-10T13:02:25Z</time></trkpt>
<trkpt lat="46.18243130855262" lon="8.847525771707296"><ele>316.41101074219</ele><time>2007-04-10T13:02:26Z</time></trkpt>
<trkpt lat="46.182494424283504" lon="8.848778028041124"><ele>310.64306640625</ele><time>2007-04-10T13:02:35Z</time></trkpt>
<trkpt lat="46.18256215006113" lon="8.849163008853793"><ele>306.7978515625</ele><time>2007-04-10T13:02:38Z</time></trkpt>
<trkpt lat="46.18258813396096" lon="8.849265519529581"><ele>306.7978515625</ele><time>2007-04-10T13:02:39Z</time></trkpt>
<trkpt lat="46.18265678174794" lon="8.849526112899184"><ele>303.91394042969</ele><time>2007-04-10T13:02:42Z</time></trkpt>
<trkpt lat="46.18260816670954" lon="8.849747898057103"><ele>301.51062011719</ele><time>2007-04-10T13:02:45Z</time></trkpt>
<trkpt lat="46.182291246950626" lon="8.849420249462128"><ele>298.62670898438</ele><time>2007-04-10T13:02:51Z</time></trkpt>
<trkpt lat="46.18227481842041" lon="8.849328383803368"><ele>299.58801269531</ele><time>2007-04-10T13:02:52Z</time></trkpt>
<trkpt lat="46.1821751575917" lon="8.848820272833109"><ele>295.26196289062</ele><time>2007-04-10T13:02:57Z</time></trkpt>
<trkpt lat="46.182053200900555" lon="8.848086018115282"><ele>291.41674804688</ele><time>2007-04-10T13:03:03Z</time></trkpt>
<trkpt lat="46.182054206728935" lon="8.847807319834828"><ele>289.97485351562</ele><time>2007-04-10T13:03:05Z</time></trkpt>
<trkpt lat="46.181970639154315" lon="8.847235841676593"><ele>286.61022949219</ele><time>2007-04-10T13:03:09Z</time></trkpt>
<trkpt lat="46.18166830390692" lon="8.846600074321032"><ele>283.72619628906</ele><time>2007-04-10T13:03:14Z</time></trkpt>
<trkpt lat="46.181551376357675" lon="8.846414247527719"><ele>280.36169433594</ele><time>2007-04-10T13:03:16Z</time></trkpt>
<trkpt lat="46.18159647099674" lon="8.845945363864303"><ele>276.51635742188</ele><time>2007-04-10T13:03:20Z</time></trkpt>
<trkpt lat="46.18149396032095" lon="8.845821395516396"><ele>274.11303710938</ele><time>2007-04-10T13:03:26Z</time></trkpt>
<trkpt lat="46.18138273246586" lon="8.84595793671906"><ele>272.1904296875</ele><time>2007-04-10T13:03:28Z</time></trkpt>
<trkpt lat="46.18090035393834" lon="8.846535868942738"><ele>268.34509277344</ele><time>2007-04-10T13:03:35Z</time></trkpt>
<trkpt lat="46.18074889294803" lon="8.847216563299298"><ele>265.46130371094</ele><time>2007-04-10T13:03:40Z</time></trkpt>
<trkpt lat="46.18081687018275" lon="8.847860880196095"><ele>260.65454101562</ele><time>2007-04-10T13:03:44Z</time></trkpt>
<trkpt lat="46.18089968338609" lon="8.848272515460849"><ele>257.2900390625</ele><time>2007-04-10T13:03:47Z</time></trkpt>
<trkpt lat="46.18094720877707" lon="8.848467143252492"><ele>253.92541503906</ele><time>2007-04-10T13:03:49Z</time></trkpt>
<trkpt lat="46.18076238781214" lon="8.848830666393042"><ele>251.04138183594</ele><time>2007-04-10T13:03:55Z</time></trkpt>
<trkpt lat="46.180672785267234" lon="8.848872492089868"><ele>249.59948730469</ele><time>2007-04-10T13:03:57Z</time></trkpt>
<trkpt lat="46.17997197434306" lon="8.849187484011054"><ele>245.2734375</ele><time>2007-04-10T13:04:11Z</time></trkpt>
<trkpt lat="46.17847605608404" lon="8.849782599136233"><ele>244.31225585938</ele><time>2007-04-10T13:04:36Z</time></trkpt>
<trkpt lat="46.17808713577688" lon="8.849894916638732"><ele>241.42822265625</ele><time>2007-04-10T13:04:41Z</time></trkpt>
<trkpt lat="46.17788161151111" lon="8.850249890238047"><ele>238.54431152344</ele><time>2007-04-10T13:04:45Z</time></trkpt>
<trkpt lat="46.17765370756388" lon="8.851084476336837"><ele>233.25708007812</ele><time>2007-04-10T13:04:53Z</time></trkpt>
<trkpt lat="46.1776006501168" lon="8.851511618122458"><ele>235.1796875</ele><time>2007-04-10T13:04:59Z</time></trkpt>
<trkpt lat="46.17759075947106" lon="8.85213959030807"><ele>230.85375976562</ele><time>2007-04-10T13:05:22Z</time></trkpt>
<trkpt lat="46.17757910862565" lon="8.852804778143764"><ele>230.85375976562</ele><time>2007-04-10T13:05:43Z</time></trkpt>
<trkpt lat="46.17695750668645" lon="8.852398423478007"><ele>234.21838378906</ele><time>2007-04-10T13:05:57Z</time></trkpt>
<trkpt lat="46.17644294165075" lon="8.852853560820222"><ele>233.73767089844</ele><time>2007-04-10T13:06:16Z</time></trkpt>
<trkpt lat="46.17603692226112" lon="8.853101832792163"><ele>232.29577636719</ele><time>2007-04-10T13:06:28Z</time></trkpt>
<trkpt lat="46.17579719983041" lon="8.852512584999204"><ele>233.25708007812</ele><time>2007-04-10T13:06:50Z</time></trkpt>
<trkpt lat="46.17554892785847" lon="8.851879248395562"><ele>232.29577636719</ele><time>2007-04-10T13:07:16Z</time></trkpt>
<trkpt lat="46.17551724426448" lon="8.851811103522778"><ele>232.29577636719</ele><time>2007-04-10T13:07:17Z</time></trkpt>
<trkpt lat="46.17534994147718" lon="8.851276841014624"><ele>231.33435058594</ele><time>2007-04-10T13:07:26Z</time></trkpt>
<trkpt lat="46.17568949237466" lon="8.850318286567926"><ele>233.73767089844</ele><time>2007-04-10T13:07:42Z</time></trkpt>
<trkpt lat="46.1757942661643" lon="8.850013185292482"><ele>235.1796875</ele><time>2007-04-10T13:07:47Z</time></trkpt>
<trkpt lat="46.17586014792323" lon="8.849699450656772"><ele>235.1796875</ele><time>2007-04-10T13:07:52Z</time></trkpt>
<trkpt lat="46.17578093893826" lon="8.849337687715888"><ele>235.66027832031</ele><time>2007-04-10T13:07:57Z</time></trkpt>
<trkpt lat="46.17554691620171" lon="8.848833348602057"><ele>234.21838378906</ele><time>2007-04-10T13:08:03Z</time></trkpt>
<trkpt lat="46.17522396147251" lon="8.848108816891909"><ele>230.373046875</ele><time>2007-04-10T13:08:10Z</time></trkpt>
<trkpt lat="46.17522832006216" lon="8.847910333424807"><ele>229.41174316406</ele><time>2007-04-10T13:08:12Z</time></trkpt>
<trkpt lat="46.175686810165644" lon="8.847156884148717"><ele>228.45043945312</ele><time>2007-04-10T13:08:22Z</time></trkpt>
<trkpt lat="46.177258836105466" lon="8.84453167207539"><ele>226.52783203125</ele><time>2007-04-10T13:08:58Z</time></trkpt>
<trkpt lat="46.17746184580028" lon="8.844303013756871"><ele>226.52783203125</ele><time>2007-04-10T13:09:03Z</time></trkpt>
<trkpt lat="46.177607188001275" lon="8.843974443152547"><ele>227.00854492188</ele><time>2007-04-10T13:09:10Z</time></trkpt>
<trkpt lat="46.17765865288675" lon="8.843881152570248"><ele>227.9697265625</ele><time>2007-04-10T13:09:13Z</time></trkpt>
<trkpt lat="46.17838427424431" lon="8.842296972870827"><ele>226.52783203125</ele><time>2007-04-10T13:09:40Z</time></trkpt>
<trkpt lat="46.178412521258" lon="8.842054568231106"><ele>226.52783203125</ele><time>2007-04-10T13:09:44Z</time></trkpt>
<trkpt lat="46.1783742159605" lon="8.84110146202147"><ele>225.56652832031</ele><time>2007-04-10T13:09:58Z</time></trkpt>
<trkpt lat="46.17853774689138" lon="8.840998699888587"><ele>225.0859375</ele><time>2007-04-10T13:10:02Z</time></trkpt>
<trkpt lat="46.17870915681124" lon="8.84071589447558"><ele>225.56652832031</ele><time>2007-04-10T13:10:07Z</time></trkpt>
<trkpt lat="46.178892217576504" lon="8.840166628360748"><ele>224.60522460938</ele><time>2007-04-10T13:10:14Z</time></trkpt>
<trkpt lat="46.17919899523258" lon="8.839189717546105"><ele>225.0859375</ele><time>2007-04-10T13:10:28Z</time></trkpt>
<trkpt lat="46.17937727831304" lon="8.835987579077482"><ele>223.16320800781</ele><time>2007-04-10T13:11:10Z</time></trkpt>
<trkpt lat="46.17951616644859" lon="8.835730673745275"><ele>223.16320800781</ele><time>2007-04-10T13:11:14Z</time></trkpt>
<trkpt lat="46.17960887029767" lon="8.83543093688786"><ele>223.64379882812</ele><time>2007-04-10T13:11:18Z</time></trkpt>
<trkpt lat="46.17997817695141" lon="8.834119588136673"><ele>223.16320800781</ele><time>2007-04-10T13:11:35Z</time></trkpt>
<trkpt lat="46.18002905510366" lon="8.833626061677933"><ele>223.16320800781</ele><time>2007-04-10T13:11:41Z</time></trkpt>
<trkpt lat="46.180008770897985" lon="8.83271369151771"><ele>222.68249511719</ele><time>2007-04-10T13:11:52Z</time></trkpt>
<trkpt lat="46.179914055392146" lon="8.8324810937047"><ele>222.20178222656</ele><time>2007-04-10T13:11:56Z</time></trkpt>
<trkpt lat="46.17929178290069" lon="8.831333359703422"><ele>221.72119140625</ele><time>2007-04-10T13:12:13Z</time></trkpt>
<trkpt lat="46.179237300530076" lon="8.831177540123463"><ele>221.72119140625</ele><time>2007-04-10T13:12:15Z</time></trkpt>
<trkpt lat="46.178684178739786" lon="8.830275814980268"><ele>221.24060058594</ele><time>2007-04-10T13:12:29Z</time></trkpt>
<trkpt lat="46.17838393896818" lon="8.82997297681868"><ele>221.24060058594</ele><time>2007-04-10T13:12:35Z</time></trkpt>
<trkpt lat="46.178113957867026" lon="8.829606352373958"><ele>221.24060058594</ele><time>2007-04-10T13:12:41Z</time></trkpt>
<trkpt lat="46.177849508821964" lon="8.829323630779982"><ele>221.24060058594</ele><time>2007-04-10T13:12:47Z</time></trkpt>
<trkpt lat="46.177237294614315" lon="8.828825242817402"><ele>220.75988769531</ele><time>2007-04-10T13:12:59Z</time></trkpt>
<trkpt lat="46.17621671408415" lon="8.827732326462865"><ele>221.24060058594</ele><time>2007-04-10T13:13:23Z</time></trkpt>
<trkpt lat="46.1753436550498" lon="8.826457858085632"><ele>220.75988769531</ele><time>2007-04-10T13:13:46Z</time></trkpt>
<trkpt lat="46.17531130090356" lon="8.826361047104001"><ele>220.75988769531</ele><time>2007-04-10T13:13:50Z</time></trkpt>
<trkpt lat="46.1752125620842" lon="8.825976569205523"><ele>222.20178222656</ele><time>2007-04-10T13:14:10Z</time></trkpt>
<trkpt lat="46.175366370007396" lon="8.824271271005273"><ele>220.27917480469</ele><time>2007-04-10T13:14:34Z</time></trkpt>
<trkpt lat="46.17530073970556" lon="8.823779923841357"><ele>220.75988769531</ele><time>2007-04-10T13:14:42Z</time></trkpt>
<trkpt lat="46.174957333132625" lon="8.822692288085818"><ele>221.24060058594</ele><time>2007-04-10T13:14:59Z</time></trkpt>
<trkpt lat="46.173575492575765" lon="8.820592369884253"><ele>220.27917480469</ele><time>2007-04-10T13:15:40Z</time></trkpt>
<trkpt lat="46.17296730168164" lon="8.818740220740438"><ele>219.79858398438</ele><time>2007-04-10T13:16:10Z</time></trkpt>
<trkpt lat="46.172860180959105" lon="8.817721903324127"><ele>219.31799316406</ele><time>2007-04-10T13:16:22Z</time></trkpt>
<trkpt lat="46.17244510911405" lon="8.81601962260902"><ele>219.31799316406</ele><time>2007-04-10T13:16:47Z</time></trkpt>
<trkpt lat="46.172279650345445" lon="8.814351540058851"><ele>218.83728027344</ele><time>2007-04-10T13:17:14Z</time></trkpt>
<trkpt lat="46.172227934002876" lon="8.814106453210115"><ele>217.8759765625</ele><time>2007-04-10T13:17:19Z</time></trkpt>
<trkpt lat="46.17218451574445" lon="8.813842087984085"><ele>218.83728027344</ele><time>2007-04-10T13:17:23Z</time></trkpt>
<trkpt lat="46.17220530286431" lon="8.812955198809505"><ele>218.83728027344</ele><time>2007-04-10T13:17:35Z</time></trkpt>
<trkpt lat="46.17220178246498" lon="8.812512550503016"><ele>218.35656738281</ele><time>2007-04-10T13:17:41Z</time></trkpt>
<trkpt lat="46.17212014272809" lon="8.811983233317733"><ele>217.8759765625</ele><time>2007-04-10T13:17:49Z</time></trkpt>
<trkpt lat="46.172078400850296" lon="8.811858342960477"><ele>217.8759765625</ele><time>2007-04-10T13:17:51Z</time></trkpt>
<trkpt lat="46.17176181636751" lon="8.810703232884407"><ele>217.39538574219</ele><time>2007-04-10T13:18:11Z</time></trkpt>
<trkpt lat="46.171553106978536" lon="8.810030585154891"><ele>220.75988769531</ele><time>2007-04-10T13:18:23Z</time></trkpt>
<trkpt lat="46.17154170759022" lon="8.809827156364918"><ele>218.83728027344</ele><time>2007-04-10T13:18:26Z</time></trkpt>
<trkpt lat="46.171532990410924" lon="8.809756832197309"><ele>219.31799316406</ele><time>2007-04-10T13:18:27Z</time></trkpt>
<trkpt lat="46.17149208672345" lon="8.809478972107172"><ele>219.79858398438</ele><time>2007-04-10T13:18:31Z</time></trkpt>
<trkpt lat="46.1713029909879" lon="8.80803007632494"><ele>220.27917480469</ele><time>2007-04-10T13:18:47Z</time></trkpt>
<trkpt lat="46.171312630176544" lon="8.807100020349026"><ele>219.79858398438</ele><time>2007-04-10T13:18:58Z</time></trkpt>
<trkpt lat="46.17140952497721" lon="8.805037904530764"><ele>218.35656738281</ele><time>2007-04-10T13:19:23Z</time></trkpt>
<trkpt lat="46.171643044799566" lon="8.80316287279129"><ele>217.39538574219</ele><time>2007-04-10T13:19:47Z</time></trkpt>
<trkpt lat="46.17148043587804" lon="8.801821768283844"><ele>216.91467285156</ele><time>2007-04-10T13:20:10Z</time></trkpt>
<trkpt lat="46.17137247696519" lon="8.801567042246461"><ele>216.91467285156</ele><time>2007-04-10T13:20:18Z</time></trkpt>
<trkpt lat="46.17120936512947" lon="8.801433518528938"><ele>216.91467285156</ele><time>2007-04-10T13:20:22Z</time></trkpt>
<trkpt lat="46.17085279896855" lon="8.801273507997394"><ele>217.39538574219</ele><time>2007-04-10T13:20:29Z</time></trkpt>
<trkpt lat="46.170569993555546" lon="8.80108910612762"><ele>217.8759765625</ele><time>2007-04-10T13:20:35Z</time></trkpt>
<trkpt lat="46.170318368822336" lon="8.800880815833807"><ele>216.91467285156</ele><time>2007-04-10T13:20:41Z</time></trkpt>
<trkpt lat="46.17009717039764" lon="8.800731031224132"><ele>215.95324707031</ele><time>2007-04-10T13:20:46Z</time></trkpt>
<trkpt lat="46.16893191821873" lon="8.801173260435462"><ele>216.43395996094</ele><time>2007-04-10T13:21:08Z</time></trkpt>
<trkpt lat="46.16704171523452" lon="8.802588628605008"><ele>214.99194335938</ele><time>2007-04-10T13:21:41Z</time></trkpt>
<trkpt lat="46.165910409763455" lon="8.803484654054046"><ele>214.99194335938</ele><time>2007-04-10T13:21:59Z</time></trkpt>
<trkpt lat="46.16560966707766" lon="8.803574005141854"><ele>215.47265625</ele><time>2007-04-10T13:22:04Z</time></trkpt>
<trkpt lat="46.16530263796449" lon="8.803488677367568"><ele>214.51123046875</ele><time>2007-04-10T13:22:10Z</time></trkpt>
<trkpt lat="46.16475312039256" lon="8.803024236112833"><ele>214.99194335938</ele><time>2007-04-10T13:22:23Z</time></trkpt>
<trkpt lat="46.164456652477384" lon="8.802895490080118"><ele>215.47265625</ele><time>2007-04-10T13:22:29Z</time></trkpt>
<trkpt lat="46.15583108738065" lon="8.800183609127998"><ele>214.51123046875</ele><time>2007-04-10T13:24:52Z</time></trkpt>
<trkpt lat="46.15491712465882" lon="8.799327230080962"><ele>214.99194335938</ele><time>2007-04-10T13:25:11Z</time></trkpt>
<trkpt lat="46.154721323400736" lon="8.798970496281981"><ele>214.99194335938</ele><time>2007-04-10T13:25:16Z</time></trkpt>
<trkpt lat="46.15515927784145" lon="8.798105735331774"><ele>216.43395996094</ele><time>2007-04-10T13:25:35Z</time></trkpt>
<trkpt lat="46.15619511343539" lon="8.796295998618007"><ele>216.43395996094</ele><time>2007-04-10T13:26:05Z</time></trkpt>
<trkpt lat="46.157431276515126" lon="8.794161127880216"><ele>217.39538574219</ele><time>2007-04-10T13:26:41Z</time></trkpt>
<trkpt lat="46.15766270086169" lon="8.793873125687242"><ele>218.35656738281</ele><time>2007-04-10T13:26:47Z</time></trkpt>
<trkpt lat="46.16303424350917" lon="8.78439512103796"><ele>222.20178222656</ele><time>2007-04-10T13:29:34Z</time></trkpt>
<trkpt lat="46.163062658160925" lon="8.78435061313212"><ele>223.16320800781</ele><time>2007-04-10T13:29:40Z</time></trkpt>
<trkpt lat="46.16269678808749" lon="8.783427262678742"><ele>225.0859375</ele><time>2007-04-10T13:30:01Z</time></trkpt>
<trkpt lat="46.16212036460638" lon="8.78205698914826"><ele>221.72119140625</ele><time>2007-04-10T13:30:26Z</time></trkpt>
<trkpt lat="46.162051716819406" lon="8.78227299079299"><ele>220.27917480469</ele><time>2007-04-10T13:30:31Z</time></trkpt>
<trkpt lat="46.162058506160975" lon="8.782561914995313"><ele>220.27917480469</ele><time>2007-04-10T13:30:34Z</time></trkpt>
<trkpt lat="46.16152332164347" lon="8.78360839560628"><ele>220.75988769531</ele><time>2007-04-10T13:30:47Z</time></trkpt>
<trkpt lat="46.15710790269077" lon="8.791367691010237"><ele>216.43395996094</ele><time>2007-04-10T13:32:29Z</time></trkpt>
<trkpt lat="46.15688184276223" lon="8.79170162603259"><ele>214.51123046875</ele><time>2007-04-10T13:32:44Z</time></trkpt>
<trkpt lat="46.15687094628811" lon="8.79169668070972"><ele>213.55004882812</ele><time>2007-04-10T13:32:46Z</time></trkpt>
<trkpt lat="46.15681772120297" lon="8.791648484766483"><ele>211.14672851562</ele><time>2007-04-10T13:32:58Z</time></trkpt>
<trkpt lat="46.155489357188344" lon="8.790045697242022"><ele>211.14672851562</ele><time>2007-04-10T13:33:52Z</time></trkpt>
<trkpt lat="46.15538424812257" lon="8.789759539067745"><ele>212.58862304688</ele><time>2007-04-10T13:33:57Z</time></trkpt>
<trkpt lat="46.154319075867534" lon="8.7879503890872"><ele>211.62744140625</ele><time>2007-04-10T13:34:29Z</time></trkpt>
<trkpt lat="46.154125118628144" lon="8.787693483754992"><ele>210.666015625</ele><time>2007-04-10T13:34:34Z</time></trkpt>
<trkpt lat="46.15305039100349" lon="8.78871699795127"><ele>210.666015625</ele><time>2007-04-10T13:34:58Z</time></trkpt>
<trkpt lat="46.15290865302086" lon="8.78871993161738"><ele>210.666015625</ele><time>2007-04-10T13:35:04Z</time></trkpt>
<trkpt lat="46.152872778475285" lon="8.788809031248093"><ele>210.666015625</ele><time>2007-04-10T13:35:08Z</time></trkpt>
<trkpt lat="46.152854170650244" lon="8.788870302960277"><ele>210.666015625</ele><time>2007-04-10T13:35:10Z</time></trkpt>
<trkpt lat="46.15273296833038" lon="8.789049675688148"><ele>210.18542480469</ele><time>2007-04-10T13:35:25Z</time></trkpt>
</trkseg></trk></gpx>